<?xml version="1.0" encoding="UTF-8" standalone="no" ?>
<gpx xmlns="http://www.topografix.com/GPX/1/1" xmlns:xsi="http://www.w3.org/2001/XMLSchema-instance" xsi:schemaLocation="http://www.topografix.com/GPX/1/1 http://www.topografix.com/GPX/1/1/gpx.xsd" version="1.1" creator="VisuGPX - https://www.visugpx.com">
  <metadata>
    <name>Houdemont MARCHE ADEPS 2015 (Avril)</name>
    <desc><![CDATA[Marche adeps à faire le dimanche en famille ]]></desc>
  </metadata>
  <trk>
    <name><![CDATA[duo choupy & scooby]]></name>
    <cmt><![CDATA[AVG 18° MAX 24° MIN14°]]></cmt>
    <trkseg>
      <trkpt lat="49.99583" lon="5.5853">
        <ele>466</ele>
        <time>2015-04-19T09:24:28Z</time>
      </trkpt>
      <trkpt lat="49.99585" lon="5.58531">
        <ele>466</ele>
        <time>2015-04-19T09:24:33Z</time>
      </trkpt>
      <trkpt lat="49.99588" lon="5.58534">
        <ele>465</ele>
        <time>2015-04-19T09:24:39Z</time>
      </trkpt>
      <trkpt lat="49.9959" lon="5.58536">
        <ele>466</ele>
        <time>2015-04-19T09:24:44Z</time>
      </trkpt>
      <trkpt lat="49.99593" lon="5.58539">
        <ele>466</ele>
        <time>2015-04-19T09:24:49Z</time>
      </trkpt>
      <trkpt lat="49.99595" lon="5.58543">
        <ele>466</ele>
        <time>2015-04-19T09:24:54Z</time>
      </trkpt>
      <trkpt lat="49.99597" lon="5.58545">
        <ele>465</ele>
        <time>2015-04-19T09:25:00Z</time>
      </trkpt>
      <trkpt lat="49.99599" lon="5.58551">
        <ele>465</ele>
        <time>2015-04-19T09:25:06Z</time>
      </trkpt>
      <trkpt lat="49.99599" lon="5.58559">
        <ele>465</ele>
        <time>2015-04-19T09:25:11Z</time>
      </trkpt>
      <trkpt lat="49.99599" lon="5.58566">
        <ele>465</ele>
        <time>2015-04-19T09:25:16Z</time>
      </trkpt>
      <trkpt lat="49.99599" lon="5.58572">
        <ele>464</ele>
        <time>2015-04-19T09:25:21Z</time>
      </trkpt>
      <trkpt lat="49.99598" lon="5.58578">
        <ele>465</ele>
        <time>2015-04-19T09:25:26Z</time>
      </trkpt>
      <trkpt lat="49.99597" lon="5.58586">
        <ele>465</ele>
        <time>2015-04-19T09:25:32Z</time>
      </trkpt>
      <trkpt lat="49.99596" lon="5.5859">
        <ele>465</ele>
        <time>2015-04-19T09:25:37Z</time>
      </trkpt>
      <trkpt lat="49.99594" lon="5.58597">
        <ele>465</ele>
        <time>2015-04-19T09:25:43Z</time>
      </trkpt>
      <trkpt lat="49.99593" lon="5.58605">
        <ele>466</ele>
        <time>2015-04-19T09:25:48Z</time>
      </trkpt>
      <trkpt lat="49.99591" lon="5.58613">
        <ele>465</ele>
        <time>2015-04-19T09:25:53Z</time>
      </trkpt>
      <trkpt lat="49.99589" lon="5.58622">
        <ele>466</ele>
        <time>2015-04-19T09:25:58Z</time>
      </trkpt>
      <trkpt lat="49.99586" lon="5.58631">
        <ele>465</ele>
        <time>2015-04-19T09:26:03Z</time>
      </trkpt>
      <trkpt lat="49.99584" lon="5.58638">
        <ele>465</ele>
        <time>2015-04-19T09:26:09Z</time>
      </trkpt>
      <trkpt lat="49.99583" lon="5.58639">
        <ele>466</ele>
        <time>2015-04-19T09:26:14Z</time>
      </trkpt>
      <trkpt lat="49.99582" lon="5.58641">
        <ele>466</ele>
        <time>2015-04-19T09:26:20Z</time>
      </trkpt>
      <trkpt lat="49.99579" lon="5.58646">
        <ele>466</ele>
        <time>2015-04-19T09:26:25Z</time>
      </trkpt>
      <trkpt lat="49.99575" lon="5.58651">
        <ele>466</ele>
        <time>2015-04-19T09:26:30Z</time>
      </trkpt>
      <trkpt lat="49.99572" lon="5.58657">
        <ele>466</ele>
        <time>2015-04-19T09:26:36Z</time>
      </trkpt>
      <trkpt lat="49.99569" lon="5.58662">
        <ele>466</ele>
        <time>2015-04-19T09:26:41Z</time>
      </trkpt>
      <trkpt lat="49.99565" lon="5.58668">
        <ele>466</ele>
        <time>2015-04-19T09:26:46Z</time>
      </trkpt>
      <trkpt lat="49.99564" lon="5.58672">
        <ele>467</ele>
        <time>2015-04-19T09:26:51Z</time>
      </trkpt>
      <trkpt lat="49.99563" lon="5.58673">
        <ele>467</ele>
        <time>2015-04-19T09:26:57Z</time>
      </trkpt>
      <trkpt lat="49.99561" lon="5.58675">
        <ele>467</ele>
        <time>2015-04-19T09:27:02Z</time>
      </trkpt>
      <trkpt lat="49.99558" lon="5.58679">
        <ele>467</ele>
        <time>2015-04-19T09:27:08Z</time>
      </trkpt>
      <trkpt lat="49.99554" lon="5.58684">
        <ele>467</ele>
        <time>2015-04-19T09:27:13Z</time>
      </trkpt>
      <trkpt lat="49.99551" lon="5.5869">
        <ele>467</ele>
        <time>2015-04-19T09:27:18Z</time>
      </trkpt>
      <trkpt lat="49.99549" lon="5.58695">
        <ele>468</ele>
        <time>2015-04-19T09:27:23Z</time>
      </trkpt>
      <trkpt lat="49.99545" lon="5.58704">
        <ele>468</ele>
        <time>2015-04-19T09:27:29Z</time>
      </trkpt>
      <trkpt lat="49.99543" lon="5.58708">
        <ele>468</ele>
        <time>2015-04-19T09:27:34Z</time>
      </trkpt>
      <trkpt lat="49.99543" lon="5.58709">
        <ele>468</ele>
        <time>2015-04-19T09:27:39Z</time>
      </trkpt>
      <trkpt lat="49.99543" lon="5.58709">
        <ele>468</ele>
        <time>2015-04-19T09:27:44Z</time>
      </trkpt>
      <trkpt lat="49.99543" lon="5.5871">
        <ele>468</ele>
        <time>2015-04-19T09:27:49Z</time>
      </trkpt>
      <trkpt lat="49.99541" lon="5.58712">
        <ele>468</ele>
        <time>2015-04-19T09:27:54Z</time>
      </trkpt>
      <trkpt lat="49.99542" lon="5.58713">
        <ele>468</ele>
        <time>2015-04-19T09:27:59Z</time>
      </trkpt>
      <trkpt lat="49.9954" lon="5.58718">
        <ele>468</ele>
        <time>2015-04-19T09:28:05Z</time>
      </trkpt>
      <trkpt lat="49.99537" lon="5.58724">
        <ele>468</ele>
        <time>2015-04-19T09:28:10Z</time>
      </trkpt>
      <trkpt lat="49.99534" lon="5.5873">
        <ele>468</ele>
        <time>2015-04-19T09:28:15Z</time>
      </trkpt>
      <trkpt lat="49.99531" lon="5.58737">
        <ele>468</ele>
        <time>2015-04-19T09:28:20Z</time>
      </trkpt>
      <trkpt lat="49.99527" lon="5.58744">
        <ele>468</ele>
        <time>2015-04-19T09:28:25Z</time>
      </trkpt>
      <trkpt lat="49.99524" lon="5.58751">
        <ele>469</ele>
        <time>2015-04-19T09:28:30Z</time>
      </trkpt>
      <trkpt lat="49.99521" lon="5.58755">
        <ele>469</ele>
        <time>2015-04-19T09:28:36Z</time>
      </trkpt>
      <trkpt lat="49.99517" lon="5.58763">
        <ele>469</ele>
        <time>2015-04-19T09:28:41Z</time>
      </trkpt>
      <trkpt lat="49.99514" lon="5.58771">
        <ele>469</ele>
        <time>2015-04-19T09:28:46Z</time>
      </trkpt>
      <trkpt lat="49.99511" lon="5.58779">
        <ele>469</ele>
        <time>2015-04-19T09:28:52Z</time>
      </trkpt>
      <trkpt lat="49.99508" lon="5.58787">
        <ele>469</ele>
        <time>2015-04-19T09:28:57Z</time>
      </trkpt>
      <trkpt lat="49.99505" lon="5.58797">
        <ele>470</ele>
        <time>2015-04-19T09:29:02Z</time>
      </trkpt>
      <trkpt lat="49.99504" lon="5.58807">
        <ele>470</ele>
        <time>2015-04-19T09:29:07Z</time>
      </trkpt>
      <trkpt lat="49.99504" lon="5.58814">
        <ele>470</ele>
        <time>2015-04-19T09:29:12Z</time>
      </trkpt>
      <trkpt lat="49.99505" lon="5.58822">
        <ele>469</ele>
        <time>2015-04-19T09:29:17Z</time>
      </trkpt>
      <trkpt lat="49.99507" lon="5.58829">
        <ele>470</ele>
        <time>2015-04-19T09:29:22Z</time>
      </trkpt>
      <trkpt lat="49.99509" lon="5.58838">
        <ele>470</ele>
        <time>2015-04-19T09:29:28Z</time>
      </trkpt>
      <trkpt lat="49.99511" lon="5.58846">
        <ele>470</ele>
        <time>2015-04-19T09:29:33Z</time>
      </trkpt>
      <trkpt lat="49.99514" lon="5.58854">
        <ele>470</ele>
        <time>2015-04-19T09:29:39Z</time>
      </trkpt>
      <trkpt lat="49.99518" lon="5.58861">
        <ele>471</ele>
        <time>2015-04-19T09:29:44Z</time>
      </trkpt>
      <trkpt lat="49.9952" lon="5.58868">
        <ele>471</ele>
        <time>2015-04-19T09:29:49Z</time>
      </trkpt>
      <trkpt lat="49.99521" lon="5.58875">
        <ele>471</ele>
        <time>2015-04-19T09:29:54Z</time>
      </trkpt>
      <trkpt lat="49.99524" lon="5.58883">
        <ele>472</ele>
        <time>2015-04-19T09:29:59Z</time>
      </trkpt>
      <trkpt lat="49.99527" lon="5.58891">
        <ele>472</ele>
        <time>2015-04-19T09:30:04Z</time>
      </trkpt>
      <trkpt lat="49.99529" lon="5.58894">
        <ele>472</ele>
        <time>2015-04-19T09:30:09Z</time>
      </trkpt>
      <trkpt lat="49.99532" lon="5.58897">
        <ele>472</ele>
        <time>2015-04-19T09:30:15Z</time>
      </trkpt>
      <trkpt lat="49.99533" lon="5.58899">
        <ele>472</ele>
        <time>2015-04-19T09:30:20Z</time>
      </trkpt>
      <trkpt lat="49.99534" lon="5.58901">
        <ele>472</ele>
        <time>2015-04-19T09:30:25Z</time>
      </trkpt>
      <trkpt lat="49.99534" lon="5.58902">
        <ele>472</ele>
        <time>2015-04-19T09:30:30Z</time>
      </trkpt>
      <trkpt lat="49.99535" lon="5.58902">
        <ele>472</ele>
        <time>2015-04-19T09:30:35Z</time>
      </trkpt>
      <trkpt lat="49.99536" lon="5.58902">
        <ele>472</ele>
        <time>2015-04-19T09:30:41Z</time>
      </trkpt>
      <trkpt lat="49.99537" lon="5.58904">
        <ele>472</ele>
        <time>2015-04-19T09:30:46Z</time>
      </trkpt>
      <trkpt lat="49.99537" lon="5.58907">
        <ele>472</ele>
        <time>2015-04-19T09:30:51Z</time>
      </trkpt>
      <trkpt lat="49.99537" lon="5.58914">
        <ele>473</ele>
        <time>2015-04-19T09:30:56Z</time>
      </trkpt>
      <trkpt lat="49.99538" lon="5.58921">
        <ele>473</ele>
        <time>2015-04-19T09:31:01Z</time>
      </trkpt>
      <trkpt lat="49.99539" lon="5.58929">
        <ele>472</ele>
        <time>2015-04-19T09:31:06Z</time>
      </trkpt>
      <trkpt lat="49.99541" lon="5.58937">
        <ele>472</ele>
        <time>2015-04-19T09:31:11Z</time>
      </trkpt>
      <trkpt lat="49.99543" lon="5.58948">
        <ele>473</ele>
        <time>2015-04-19T09:31:17Z</time>
      </trkpt>
      <trkpt lat="49.99544" lon="5.58955">
        <ele>473</ele>
        <time>2015-04-19T09:31:22Z</time>
      </trkpt>
      <trkpt lat="49.99546" lon="5.58963">
        <ele>474</ele>
        <time>2015-04-19T09:31:27Z</time>
      </trkpt>
      <trkpt lat="49.99548" lon="5.58974">
        <ele>474</ele>
        <time>2015-04-19T09:31:33Z</time>
      </trkpt>
      <trkpt lat="49.99549" lon="5.58983">
        <ele>474</ele>
        <time>2015-04-19T09:31:38Z</time>
      </trkpt>
      <trkpt lat="49.99551" lon="5.58992">
        <ele>475</ele>
        <time>2015-04-19T09:31:43Z</time>
      </trkpt>
      <trkpt lat="49.99551" lon="5.59001">
        <ele>475</ele>
        <time>2015-04-19T09:31:48Z</time>
      </trkpt>
      <trkpt lat="49.99552" lon="5.5901">
        <ele>475</ele>
        <time>2015-04-19T09:31:54Z</time>
      </trkpt>
      <trkpt lat="49.99554" lon="5.5902">
        <ele>475</ele>
        <time>2015-04-19T09:31:59Z</time>
      </trkpt>
      <trkpt lat="49.99555" lon="5.59029">
        <ele>476</ele>
        <time>2015-04-19T09:32:04Z</time>
      </trkpt>
      <trkpt lat="49.99556" lon="5.59038">
        <ele>476</ele>
        <time>2015-04-19T09:32:09Z</time>
      </trkpt>
      <trkpt lat="49.99559" lon="5.59048">
        <ele>476</ele>
        <time>2015-04-19T09:32:14Z</time>
      </trkpt>
      <trkpt lat="49.99561" lon="5.59058">
        <ele>476</ele>
        <time>2015-04-19T09:32:20Z</time>
      </trkpt>
      <trkpt lat="49.99562" lon="5.59067">
        <ele>477</ele>
        <time>2015-04-19T09:32:25Z</time>
      </trkpt>
      <trkpt lat="49.99564" lon="5.59074">
        <ele>477</ele>
        <time>2015-04-19T09:32:30Z</time>
      </trkpt>
      <trkpt lat="49.99566" lon="5.59083">
        <ele>477</ele>
        <time>2015-04-19T09:32:35Z</time>
      </trkpt>
      <trkpt lat="49.99568" lon="5.59092">
        <ele>478</ele>
        <time>2015-04-19T09:32:40Z</time>
      </trkpt>
      <trkpt lat="49.9957" lon="5.591">
        <ele>478</ele>
        <time>2015-04-19T09:32:45Z</time>
      </trkpt>
      <trkpt lat="49.99572" lon="5.59111">
        <ele>479</ele>
        <time>2015-04-19T09:32:51Z</time>
      </trkpt>
      <trkpt lat="49.99575" lon="5.59119">
        <ele>479</ele>
        <time>2015-04-19T09:32:56Z</time>
      </trkpt>
      <trkpt lat="49.99577" lon="5.5913">
        <ele>478</ele>
        <time>2015-04-19T09:33:02Z</time>
      </trkpt>
      <trkpt lat="49.9958" lon="5.59138">
        <ele>478</ele>
        <time>2015-04-19T09:33:07Z</time>
      </trkpt>
      <trkpt lat="49.99583" lon="5.59148">
        <ele>478</ele>
        <time>2015-04-19T09:33:13Z</time>
      </trkpt>
      <trkpt lat="49.99584" lon="5.59157">
        <ele>478</ele>
        <time>2015-04-19T09:33:18Z</time>
      </trkpt>
      <trkpt lat="49.99587" lon="5.59167">
        <ele>478</ele>
        <time>2015-04-19T09:33:24Z</time>
      </trkpt>
      <trkpt lat="49.99589" lon="5.59176">
        <ele>478</ele>
        <time>2015-04-19T09:33:29Z</time>
      </trkpt>
      <trkpt lat="49.99593" lon="5.59186">
        <ele>478</ele>
        <time>2015-04-19T09:33:35Z</time>
      </trkpt>
      <trkpt lat="49.99596" lon="5.59194">
        <ele>479</ele>
        <time>2015-04-19T09:33:40Z</time>
      </trkpt>
      <trkpt lat="49.99599" lon="5.59202">
        <ele>479</ele>
        <time>2015-04-19T09:33:45Z</time>
      </trkpt>
      <trkpt lat="49.99603" lon="5.59211">
        <ele>479</ele>
        <time>2015-04-19T09:33:50Z</time>
      </trkpt>
      <trkpt lat="49.99607" lon="5.5922">
        <ele>479</ele>
        <time>2015-04-19T09:33:55Z</time>
      </trkpt>
      <trkpt lat="49.99612" lon="5.59229">
        <ele>479</ele>
        <time>2015-04-19T09:34:01Z</time>
      </trkpt>
      <trkpt lat="49.99616" lon="5.59237">
        <ele>479</ele>
        <time>2015-04-19T09:34:06Z</time>
      </trkpt>
      <trkpt lat="49.99619" lon="5.59245">
        <ele>479</ele>
        <time>2015-04-19T09:34:11Z</time>
      </trkpt>
      <trkpt lat="49.99622" lon="5.59252">
        <ele>480</ele>
        <time>2015-04-19T09:34:16Z</time>
      </trkpt>
      <trkpt lat="49.99626" lon="5.5926">
        <ele>479</ele>
        <time>2015-04-19T09:34:22Z</time>
      </trkpt>
      <trkpt lat="49.99628" lon="5.59267">
        <ele>478</ele>
        <time>2015-04-19T09:34:27Z</time>
      </trkpt>
      <trkpt lat="49.9963" lon="5.59273">
        <ele>478</ele>
        <time>2015-04-19T09:34:32Z</time>
      </trkpt>
      <trkpt lat="49.99633" lon="5.59282">
        <ele>478</ele>
        <time>2015-04-19T09:34:38Z</time>
      </trkpt>
      <trkpt lat="49.99638" lon="5.59291">
        <ele>478</ele>
        <time>2015-04-19T09:34:44Z</time>
      </trkpt>
      <trkpt lat="49.99639" lon="5.593">
        <ele>479</ele>
        <time>2015-04-19T09:34:49Z</time>
      </trkpt>
      <trkpt lat="49.99642" lon="5.59307">
        <ele>478</ele>
        <time>2015-04-19T09:34:54Z</time>
      </trkpt>
      <trkpt lat="49.99646" lon="5.59316">
        <ele>479</ele>
        <time>2015-04-19T09:35:00Z</time>
      </trkpt>
      <trkpt lat="49.99649" lon="5.59326">
        <ele>478</ele>
        <time>2015-04-19T09:35:06Z</time>
      </trkpt>
      <trkpt lat="49.99652" lon="5.59335">
        <ele>478</ele>
        <time>2015-04-19T09:35:11Z</time>
      </trkpt>
      <trkpt lat="49.99657" lon="5.59342">
        <ele>478</ele>
        <time>2015-04-19T09:35:16Z</time>
      </trkpt>
      <trkpt lat="49.99662" lon="5.59351">
        <ele>478</ele>
        <time>2015-04-19T09:35:22Z</time>
      </trkpt>
      <trkpt lat="49.99666" lon="5.59359">
        <ele>477</ele>
        <time>2015-04-19T09:35:27Z</time>
      </trkpt>
      <trkpt lat="49.99671" lon="5.59365">
        <ele>477</ele>
        <time>2015-04-19T09:35:33Z</time>
      </trkpt>
      <trkpt lat="49.99673" lon="5.59367">
        <ele>476</ele>
        <time>2015-04-19T09:35:39Z</time>
      </trkpt>
      <trkpt lat="49.99676" lon="5.59372">
        <ele>476</ele>
        <time>2015-04-19T09:35:45Z</time>
      </trkpt>
      <trkpt lat="49.99678" lon="5.59375">
        <ele>477</ele>
        <time>2015-04-19T09:35:50Z</time>
      </trkpt>
      <trkpt lat="49.99678" lon="5.59377">
        <ele>477</ele>
        <time>2015-04-19T09:35:55Z</time>
      </trkpt>
      <trkpt lat="49.99679" lon="5.59378">
        <ele>477</ele>
        <time>2015-04-19T09:36:00Z</time>
      </trkpt>
      <trkpt lat="49.99681" lon="5.59382">
        <ele>476</ele>
        <time>2015-04-19T09:36:05Z</time>
      </trkpt>
      <trkpt lat="49.99686" lon="5.59391">
        <ele>477</ele>
        <time>2015-04-19T09:36:11Z</time>
      </trkpt>
      <trkpt lat="49.99689" lon="5.59398">
        <ele>476</ele>
        <time>2015-04-19T09:36:16Z</time>
      </trkpt>
      <trkpt lat="49.99691" lon="5.59407">
        <ele>475</ele>
        <time>2015-04-19T09:36:21Z</time>
      </trkpt>
      <trkpt lat="49.99693" lon="5.59415">
        <ele>474</ele>
        <time>2015-04-19T09:36:26Z</time>
      </trkpt>
      <trkpt lat="49.99694" lon="5.59426">
        <ele>474</ele>
        <time>2015-04-19T09:36:32Z</time>
      </trkpt>
      <trkpt lat="49.99695" lon="5.59434">
        <ele>474</ele>
        <time>2015-04-19T09:36:37Z</time>
      </trkpt>
      <trkpt lat="49.99695" lon="5.59446">
        <ele>475</ele>
        <time>2015-04-19T09:36:43Z</time>
      </trkpt>
      <trkpt lat="49.99695" lon="5.59458">
        <ele>474</ele>
        <time>2015-04-19T09:36:49Z</time>
      </trkpt>
      <trkpt lat="49.99694" lon="5.59468">
        <ele>474</ele>
        <time>2015-04-19T09:36:54Z</time>
      </trkpt>
      <trkpt lat="49.99694" lon="5.59478">
        <ele>474</ele>
        <time>2015-04-19T09:36:59Z</time>
      </trkpt>
      <trkpt lat="49.99695" lon="5.59487">
        <ele>474</ele>
        <time>2015-04-19T09:37:04Z</time>
      </trkpt>
      <trkpt lat="49.99695" lon="5.59496">
        <ele>473</ele>
        <time>2015-04-19T09:37:09Z</time>
      </trkpt>
      <trkpt lat="49.99695" lon="5.59508">
        <ele>473</ele>
        <time>2015-04-19T09:37:15Z</time>
      </trkpt>
      <trkpt lat="49.99695" lon="5.59518">
        <ele>474</ele>
        <time>2015-04-19T09:37:20Z</time>
      </trkpt>
      <trkpt lat="49.99695" lon="5.59528">
        <ele>474</ele>
        <time>2015-04-19T09:37:25Z</time>
      </trkpt>
      <trkpt lat="49.99694" lon="5.59539">
        <ele>475</ele>
        <time>2015-04-19T09:37:31Z</time>
      </trkpt>
      <trkpt lat="49.99695" lon="5.59548">
        <ele>475</ele>
        <time>2015-04-19T09:37:36Z</time>
      </trkpt>
      <trkpt lat="49.99696" lon="5.5956">
        <ele>474</ele>
        <time>2015-04-19T09:37:42Z</time>
      </trkpt>
      <trkpt lat="49.99696" lon="5.59569">
        <ele>474</ele>
        <time>2015-04-19T09:37:47Z</time>
      </trkpt>
      <trkpt lat="49.99697" lon="5.5958">
        <ele>474</ele>
        <time>2015-04-19T09:37:53Z</time>
      </trkpt>
      <trkpt lat="49.99697" lon="5.5959">
        <ele>474</ele>
        <time>2015-04-19T09:37:58Z</time>
      </trkpt>
      <trkpt lat="49.99698" lon="5.596">
        <ele>474</ele>
        <time>2015-04-19T09:38:03Z</time>
      </trkpt>
      <trkpt lat="49.99699" lon="5.59611">
        <ele>474</ele>
        <time>2015-04-19T09:38:09Z</time>
      </trkpt>
      <trkpt lat="49.997" lon="5.59621">
        <ele>474</ele>
        <time>2015-04-19T09:38:15Z</time>
      </trkpt>
      <trkpt lat="49.99701" lon="5.59631">
        <ele>474</ele>
        <time>2015-04-19T09:38:20Z</time>
      </trkpt>
      <trkpt lat="49.99702" lon="5.59641">
        <ele>475</ele>
        <time>2015-04-19T09:38:25Z</time>
      </trkpt>
      <trkpt lat="49.99705" lon="5.59652">
        <ele>475</ele>
        <time>2015-04-19T09:38:31Z</time>
      </trkpt>
      <trkpt lat="49.99707" lon="5.59663">
        <ele>474</ele>
        <time>2015-04-19T09:38:37Z</time>
      </trkpt>
      <trkpt lat="49.99709" lon="5.59672">
        <ele>474</ele>
        <time>2015-04-19T09:38:42Z</time>
      </trkpt>
      <trkpt lat="49.9971" lon="5.59684">
        <ele>474</ele>
        <time>2015-04-19T09:38:48Z</time>
      </trkpt>
      <trkpt lat="49.99711" lon="5.59692">
        <ele>475</ele>
        <time>2015-04-19T09:38:53Z</time>
      </trkpt>
      <trkpt lat="49.99712" lon="5.59703">
        <ele>476</ele>
        <time>2015-04-19T09:38:59Z</time>
      </trkpt>
      <trkpt lat="49.99713" lon="5.59713">
        <ele>476</ele>
        <time>2015-04-19T09:39:05Z</time>
      </trkpt>
      <trkpt lat="49.99714" lon="5.59722">
        <ele>476</ele>
        <time>2015-04-19T09:39:11Z</time>
      </trkpt>
      <trkpt lat="49.99715" lon="5.5973">
        <ele>476</ele>
        <time>2015-04-19T09:39:16Z</time>
      </trkpt>
      <trkpt lat="49.99716" lon="5.59737">
        <ele>477</ele>
        <time>2015-04-19T09:39:21Z</time>
      </trkpt>
      <trkpt lat="49.99717" lon="5.59747">
        <ele>477</ele>
        <time>2015-04-19T09:39:27Z</time>
      </trkpt>
      <trkpt lat="49.99718" lon="5.59756">
        <ele>477</ele>
        <time>2015-04-19T09:39:32Z</time>
      </trkpt>
      <trkpt lat="49.9972" lon="5.59767">
        <ele>477</ele>
        <time>2015-04-19T09:39:38Z</time>
      </trkpt>
      <trkpt lat="49.99723" lon="5.59776">
        <ele>478</ele>
        <time>2015-04-19T09:39:44Z</time>
      </trkpt>
      <trkpt lat="49.99725" lon="5.59787">
        <ele>479</ele>
        <time>2015-04-19T09:39:50Z</time>
      </trkpt>
      <trkpt lat="49.99728" lon="5.59796">
        <ele>479</ele>
        <time>2015-04-19T09:39:55Z</time>
      </trkpt>
      <trkpt lat="49.9973" lon="5.59805">
        <ele>479</ele>
        <time>2015-04-19T09:40:00Z</time>
      </trkpt>
      <trkpt lat="49.99732" lon="5.59813">
        <ele>479</ele>
        <time>2015-04-19T09:40:05Z</time>
      </trkpt>
      <trkpt lat="49.99734" lon="5.59823">
        <ele>480</ele>
        <time>2015-04-19T09:40:11Z</time>
      </trkpt>
      <trkpt lat="49.99736" lon="5.59831">
        <ele>480</ele>
        <time>2015-04-19T09:40:16Z</time>
      </trkpt>
      <trkpt lat="49.99739" lon="5.5984">
        <ele>480</ele>
        <time>2015-04-19T09:40:22Z</time>
      </trkpt>
      <trkpt lat="49.99742" lon="5.59847">
        <ele>480</ele>
        <time>2015-04-19T09:40:27Z</time>
      </trkpt>
      <trkpt lat="49.99744" lon="5.59857">
        <ele>480</ele>
        <time>2015-04-19T09:40:33Z</time>
      </trkpt>
      <trkpt lat="49.99747" lon="5.59864">
        <ele>480</ele>
        <time>2015-04-19T09:40:38Z</time>
      </trkpt>
      <trkpt lat="49.99749" lon="5.59874">
        <ele>480</ele>
        <time>2015-04-19T09:40:44Z</time>
      </trkpt>
      <trkpt lat="49.99751" lon="5.59881">
        <ele>481</ele>
        <time>2015-04-19T09:40:49Z</time>
      </trkpt>
      <trkpt lat="49.99753" lon="5.59892">
        <ele>481</ele>
        <time>2015-04-19T09:40:55Z</time>
      </trkpt>
      <trkpt lat="49.99756" lon="5.59898">
        <ele>482</ele>
        <time>2015-04-19T09:41:00Z</time>
      </trkpt>
      <trkpt lat="49.99755" lon="5.599">
        <ele>483</ele>
        <time>2015-04-19T09:41:06Z</time>
      </trkpt>
      <trkpt lat="49.99756" lon="5.59902">
        <ele>483</ele>
        <time>2015-04-19T09:41:11Z</time>
      </trkpt>
      <trkpt lat="49.99756" lon="5.59904">
        <ele>483</ele>
        <time>2015-04-19T09:41:17Z</time>
      </trkpt>
      <trkpt lat="49.99758" lon="5.59906">
        <ele>483</ele>
        <time>2015-04-19T09:41:22Z</time>
      </trkpt>
      <trkpt lat="49.99758" lon="5.59913">
        <ele>482</ele>
        <time>2015-04-19T09:41:28Z</time>
      </trkpt>
      <trkpt lat="49.9976" lon="5.59919">
        <ele>482</ele>
        <time>2015-04-19T09:41:33Z</time>
      </trkpt>
      <trkpt lat="49.99763" lon="5.5993">
        <ele>482</ele>
        <time>2015-04-19T09:41:39Z</time>
      </trkpt>
      <trkpt lat="49.99765" lon="5.59939">
        <ele>481</ele>
        <time>2015-04-19T09:41:44Z</time>
      </trkpt>
      <trkpt lat="49.99769" lon="5.59949">
        <ele>482</ele>
        <time>2015-04-19T09:41:50Z</time>
      </trkpt>
      <trkpt lat="49.99772" lon="5.5996">
        <ele>481</ele>
        <time>2015-04-19T09:41:56Z</time>
      </trkpt>
      <trkpt lat="49.99775" lon="5.5997">
        <ele>481</ele>
        <time>2015-04-19T09:42:02Z</time>
      </trkpt>
      <trkpt lat="49.99778" lon="5.59979">
        <ele>482</ele>
        <time>2015-04-19T09:42:07Z</time>
      </trkpt>
      <trkpt lat="49.99781" lon="5.59987">
        <ele>482</ele>
        <time>2015-04-19T09:42:12Z</time>
      </trkpt>
      <trkpt lat="49.99784" lon="5.59998">
        <ele>482</ele>
        <time>2015-04-19T09:42:18Z</time>
      </trkpt>
      <trkpt lat="49.99786" lon="5.60005">
        <ele>482</ele>
        <time>2015-04-19T09:42:23Z</time>
      </trkpt>
      <trkpt lat="49.99789" lon="5.60015">
        <ele>483</ele>
        <time>2015-04-19T09:42:29Z</time>
      </trkpt>
      <trkpt lat="49.99791" lon="5.60024">
        <ele>484</ele>
        <time>2015-04-19T09:42:34Z</time>
      </trkpt>
      <trkpt lat="49.99792" lon="5.60032">
        <ele>485</ele>
        <time>2015-04-19T09:42:39Z</time>
      </trkpt>
      <trkpt lat="49.99794" lon="5.60042">
        <ele>485</ele>
        <time>2015-04-19T09:42:45Z</time>
      </trkpt>
      <trkpt lat="49.99797" lon="5.6005">
        <ele>485</ele>
        <time>2015-04-19T09:42:50Z</time>
      </trkpt>
      <trkpt lat="49.998" lon="5.60058">
        <ele>485</ele>
        <time>2015-04-19T09:42:55Z</time>
      </trkpt>
      <trkpt lat="49.99805" lon="5.60067">
        <ele>484</ele>
        <time>2015-04-19T09:43:01Z</time>
      </trkpt>
      <trkpt lat="49.9981" lon="5.60076">
        <ele>485</ele>
        <time>2015-04-19T09:43:07Z</time>
      </trkpt>
      <trkpt lat="49.99814" lon="5.60083">
        <ele>485</ele>
        <time>2015-04-19T09:43:12Z</time>
      </trkpt>
      <trkpt lat="49.99819" lon="5.60092">
        <ele>485</ele>
        <time>2015-04-19T09:43:18Z</time>
      </trkpt>
      <trkpt lat="49.99824" lon="5.60102">
        <ele>485</ele>
        <time>2015-04-19T09:43:24Z</time>
      </trkpt>
      <trkpt lat="49.99828" lon="5.60109">
        <ele>485</ele>
        <time>2015-04-19T09:43:29Z</time>
      </trkpt>
      <trkpt lat="49.99833" lon="5.60117">
        <ele>486</ele>
        <time>2015-04-19T09:43:34Z</time>
      </trkpt>
      <trkpt lat="49.99837" lon="5.60124">
        <ele>486</ele>
        <time>2015-04-19T09:43:39Z</time>
      </trkpt>
      <trkpt lat="49.9984" lon="5.60132">
        <ele>485</ele>
        <time>2015-04-19T09:43:44Z</time>
      </trkpt>
      <trkpt lat="49.99844" lon="5.60139">
        <ele>485</ele>
        <time>2015-04-19T09:43:49Z</time>
      </trkpt>
      <trkpt lat="49.99847" lon="5.60147">
        <ele>486</ele>
        <time>2015-04-19T09:43:55Z</time>
      </trkpt>
      <trkpt lat="49.9985" lon="5.60155">
        <ele>486</ele>
        <time>2015-04-19T09:44:00Z</time>
      </trkpt>
      <trkpt lat="49.99853" lon="5.6016">
        <ele>487</ele>
        <time>2015-04-19T09:44:06Z</time>
      </trkpt>
      <trkpt lat="49.99855" lon="5.60162">
        <ele>487</ele>
        <time>2015-04-19T09:44:11Z</time>
      </trkpt>
      <trkpt lat="49.99858" lon="5.6017">
        <ele>487</ele>
        <time>2015-04-19T09:44:16Z</time>
      </trkpt>
      <trkpt lat="49.99862" lon="5.60178">
        <ele>487</ele>
        <time>2015-04-19T09:44:22Z</time>
      </trkpt>
      <trkpt lat="49.99866" lon="5.60187">
        <ele>487</ele>
        <time>2015-04-19T09:44:28Z</time>
      </trkpt>
      <trkpt lat="49.9987" lon="5.60195">
        <ele>487</ele>
        <time>2015-04-19T09:44:34Z</time>
      </trkpt>
      <trkpt lat="49.99873" lon="5.60204">
        <ele>488</ele>
        <time>2015-04-19T09:44:40Z</time>
      </trkpt>
      <trkpt lat="49.99876" lon="5.60212">
        <ele>488</ele>
        <time>2015-04-19T09:44:45Z</time>
      </trkpt>
      <trkpt lat="49.99879" lon="5.60219">
        <ele>488</ele>
        <time>2015-04-19T09:44:50Z</time>
      </trkpt>
      <trkpt lat="49.99883" lon="5.60228">
        <ele>488</ele>
        <time>2015-04-19T09:44:56Z</time>
      </trkpt>
      <trkpt lat="49.99886" lon="5.60235">
        <ele>488</ele>
        <time>2015-04-19T09:45:01Z</time>
      </trkpt>
      <trkpt lat="49.99891" lon="5.60244">
        <ele>488</ele>
        <time>2015-04-19T09:45:07Z</time>
      </trkpt>
      <trkpt lat="49.99894" lon="5.60252">
        <ele>489</ele>
        <time>2015-04-19T09:45:12Z</time>
      </trkpt>
      <trkpt lat="49.99897" lon="5.60259">
        <ele>489</ele>
        <time>2015-04-19T09:45:17Z</time>
      </trkpt>
      <trkpt lat="49.99902" lon="5.60268">
        <ele>489</ele>
        <time>2015-04-19T09:45:23Z</time>
      </trkpt>
      <trkpt lat="49.99906" lon="5.60276">
        <ele>489</ele>
        <time>2015-04-19T09:45:28Z</time>
      </trkpt>
      <trkpt lat="49.99909" lon="5.60283">
        <ele>489</ele>
        <time>2015-04-19T09:45:33Z</time>
      </trkpt>
      <trkpt lat="49.99913" lon="5.6029">
        <ele>489</ele>
        <time>2015-04-19T09:45:38Z</time>
      </trkpt>
      <trkpt lat="49.99916" lon="5.60297">
        <ele>490</ele>
        <time>2015-04-19T09:45:43Z</time>
      </trkpt>
      <trkpt lat="49.9992" lon="5.60306">
        <ele>490</ele>
        <time>2015-04-19T09:45:49Z</time>
      </trkpt>
      <trkpt lat="49.99923" lon="5.60313">
        <ele>491</ele>
        <time>2015-04-19T09:45:54Z</time>
      </trkpt>
      <trkpt lat="49.99926" lon="5.60322">
        <ele>492</ele>
        <time>2015-04-19T09:46:00Z</time>
      </trkpt>
      <trkpt lat="49.99928" lon="5.60327">
        <ele>492</ele>
        <time>2015-04-19T09:46:05Z</time>
      </trkpt>
      <trkpt lat="49.99929" lon="5.60331">
        <ele>492</ele>
        <time>2015-04-19T09:46:11Z</time>
      </trkpt>
      <trkpt lat="49.99931" lon="5.60341">
        <ele>492</ele>
        <time>2015-04-19T09:46:17Z</time>
      </trkpt>
      <trkpt lat="49.99934" lon="5.60348">
        <ele>492</ele>
        <time>2015-04-19T09:46:22Z</time>
      </trkpt>
      <trkpt lat="49.99937" lon="5.60358">
        <ele>492</ele>
        <time>2015-04-19T09:46:28Z</time>
      </trkpt>
      <trkpt lat="49.99939" lon="5.60367">
        <ele>493</ele>
        <time>2015-04-19T09:46:33Z</time>
      </trkpt>
      <trkpt lat="49.99942" lon="5.60377">
        <ele>493</ele>
        <time>2015-04-19T09:46:39Z</time>
      </trkpt>
      <trkpt lat="49.99942" lon="5.60385">
        <ele>493</ele>
        <time>2015-04-19T09:46:44Z</time>
      </trkpt>
      <trkpt lat="49.99943" lon="5.60395">
        <ele>494</ele>
        <time>2015-04-19T09:46:50Z</time>
      </trkpt>
      <trkpt lat="49.99944" lon="5.60404">
        <ele>494</ele>
        <time>2015-04-19T09:46:56Z</time>
      </trkpt>
      <trkpt lat="49.99945" lon="5.60413">
        <ele>495</ele>
        <time>2015-04-19T09:47:01Z</time>
      </trkpt>
      <trkpt lat="49.99946" lon="5.60421">
        <ele>495</ele>
        <time>2015-04-19T09:47:06Z</time>
      </trkpt>
      <trkpt lat="49.99947" lon="5.6043">
        <ele>495</ele>
        <time>2015-04-19T09:47:12Z</time>
      </trkpt>
      <trkpt lat="49.99949" lon="5.60438">
        <ele>495</ele>
        <time>2015-04-19T09:47:18Z</time>
      </trkpt>
      <trkpt lat="49.99949" lon="5.60445">
        <ele>496</ele>
        <time>2015-04-19T09:47:23Z</time>
      </trkpt>
      <trkpt lat="49.9995" lon="5.60453">
        <ele>496</ele>
        <time>2015-04-19T09:47:29Z</time>
      </trkpt>
      <trkpt lat="49.99951" lon="5.60461">
        <ele>497</ele>
        <time>2015-04-19T09:47:35Z</time>
      </trkpt>
      <trkpt lat="49.99953" lon="5.6047">
        <ele>497</ele>
        <time>2015-04-19T09:47:41Z</time>
      </trkpt>
      <trkpt lat="49.99954" lon="5.60478">
        <ele>498</ele>
        <time>2015-04-19T09:47:46Z</time>
      </trkpt>
      <trkpt lat="49.99955" lon="5.60487">
        <ele>498</ele>
        <time>2015-04-19T09:47:52Z</time>
      </trkpt>
      <trkpt lat="49.99956" lon="5.60494">
        <ele>499</ele>
        <time>2015-04-19T09:47:57Z</time>
      </trkpt>
      <trkpt lat="49.99958" lon="5.60502">
        <ele>499</ele>
        <time>2015-04-19T09:48:03Z</time>
      </trkpt>
      <trkpt lat="49.99959" lon="5.6051">
        <ele>499</ele>
        <time>2015-04-19T09:48:08Z</time>
      </trkpt>
      <trkpt lat="49.9996" lon="5.60518">
        <ele>499</ele>
        <time>2015-04-19T09:48:14Z</time>
      </trkpt>
      <trkpt lat="49.99962" lon="5.60525">
        <ele>500</ele>
        <time>2015-04-19T09:48:19Z</time>
      </trkpt>
      <trkpt lat="49.99963" lon="5.60532">
        <ele>500</ele>
        <time>2015-04-19T09:48:24Z</time>
      </trkpt>
      <trkpt lat="49.99965" lon="5.60541">
        <ele>501</ele>
        <time>2015-04-19T09:48:30Z</time>
      </trkpt>
      <trkpt lat="49.99966" lon="5.60549">
        <ele>501</ele>
        <time>2015-04-19T09:48:36Z</time>
      </trkpt>
      <trkpt lat="49.99967" lon="5.6055">
        <ele>501</ele>
        <time>2015-04-19T09:48:42Z</time>
      </trkpt>
      <trkpt lat="49.99967" lon="5.60552">
        <ele>501</ele>
        <time>2015-04-19T09:48:48Z</time>
      </trkpt>
      <trkpt lat="49.99967" lon="5.60556">
        <ele>501</ele>
        <time>2015-04-19T09:48:54Z</time>
      </trkpt>
      <trkpt lat="49.99968" lon="5.60566">
        <ele>501</ele>
        <time>2015-04-19T09:49:00Z</time>
      </trkpt>
      <trkpt lat="49.99969" lon="5.60574">
        <ele>502</ele>
        <time>2015-04-19T09:49:05Z</time>
      </trkpt>
      <trkpt lat="49.9997" lon="5.60584">
        <ele>502</ele>
        <time>2015-04-19T09:49:11Z</time>
      </trkpt>
      <trkpt lat="49.99971" lon="5.60593">
        <ele>503</ele>
        <time>2015-04-19T09:49:16Z</time>
      </trkpt>
      <trkpt lat="49.99973" lon="5.60602">
        <ele>504</ele>
        <time>2015-04-19T09:49:21Z</time>
      </trkpt>
      <trkpt lat="49.99974" lon="5.60609">
        <ele>503</ele>
        <time>2015-04-19T09:49:26Z</time>
      </trkpt>
      <trkpt lat="49.99975" lon="5.60617">
        <ele>503</ele>
        <time>2015-04-19T09:49:32Z</time>
      </trkpt>
      <trkpt lat="49.99976" lon="5.60624">
        <ele>503</ele>
        <time>2015-04-19T09:49:37Z</time>
      </trkpt>
      <trkpt lat="49.99976" lon="5.60634">
        <ele>504</ele>
        <time>2015-04-19T09:49:43Z</time>
      </trkpt>
      <trkpt lat="49.99977" lon="5.60642">
        <ele>504</ele>
        <time>2015-04-19T09:49:48Z</time>
      </trkpt>
      <trkpt lat="49.99978" lon="5.6065">
        <ele>505</ele>
        <time>2015-04-19T09:49:53Z</time>
      </trkpt>
      <trkpt lat="49.99979" lon="5.60659">
        <ele>505</ele>
        <time>2015-04-19T09:49:58Z</time>
      </trkpt>
      <trkpt lat="49.9998" lon="5.60669">
        <ele>505</ele>
        <time>2015-04-19T09:50:04Z</time>
      </trkpt>
      <trkpt lat="49.99981" lon="5.60679">
        <ele>506</ele>
        <time>2015-04-19T09:50:09Z</time>
      </trkpt>
      <trkpt lat="49.99983" lon="5.60689">
        <ele>507</ele>
        <time>2015-04-19T09:50:15Z</time>
      </trkpt>
      <trkpt lat="49.99984" lon="5.60698">
        <ele>507</ele>
        <time>2015-04-19T09:50:20Z</time>
      </trkpt>
      <trkpt lat="49.99985" lon="5.60707">
        <ele>507</ele>
        <time>2015-04-19T09:50:26Z</time>
      </trkpt>
      <trkpt lat="49.99986" lon="5.60715">
        <ele>508</ele>
        <time>2015-04-19T09:50:31Z</time>
      </trkpt>
      <trkpt lat="49.99987" lon="5.60723">
        <ele>507</ele>
        <time>2015-04-19T09:50:36Z</time>
      </trkpt>
      <trkpt lat="49.99989" lon="5.60732">
        <ele>508</ele>
        <time>2015-04-19T09:50:41Z</time>
      </trkpt>
      <trkpt lat="49.9999" lon="5.60743">
        <ele>509</ele>
        <time>2015-04-19T09:50:47Z</time>
      </trkpt>
      <trkpt lat="49.99992" lon="5.60751">
        <ele>509</ele>
        <time>2015-04-19T09:50:52Z</time>
      </trkpt>
      <trkpt lat="49.99993" lon="5.6076">
        <ele>509</ele>
        <time>2015-04-19T09:50:57Z</time>
      </trkpt>
      <trkpt lat="49.99993" lon="5.60768">
        <ele>509</ele>
        <time>2015-04-19T09:51:02Z</time>
      </trkpt>
      <trkpt lat="49.99993" lon="5.60777">
        <ele>509</ele>
        <time>2015-04-19T09:51:07Z</time>
      </trkpt>
      <trkpt lat="49.99993" lon="5.60785">
        <ele>509</ele>
        <time>2015-04-19T09:51:12Z</time>
      </trkpt>
      <trkpt lat="49.99994" lon="5.60795">
        <ele>510</ele>
        <time>2015-04-19T09:51:18Z</time>
      </trkpt>
      <trkpt lat="49.99995" lon="5.60805">
        <ele>510</ele>
        <time>2015-04-19T09:51:24Z</time>
      </trkpt>
      <trkpt lat="49.99996" lon="5.60815">
        <ele>510</ele>
        <time>2015-04-19T09:51:30Z</time>
      </trkpt>
      <trkpt lat="49.99998" lon="5.60825">
        <ele>510</ele>
        <time>2015-04-19T09:51:35Z</time>
      </trkpt>
      <trkpt lat="50" lon="5.60837">
        <ele>511</ele>
        <time>2015-04-19T09:51:41Z</time>
      </trkpt>
      <trkpt lat="50.00002" lon="5.60846">
        <ele>510</ele>
        <time>2015-04-19T09:51:46Z</time>
      </trkpt>
      <trkpt lat="50.00004" lon="5.60854">
        <ele>510</ele>
        <time>2015-04-19T09:51:52Z</time>
      </trkpt>
      <trkpt lat="50.00006" lon="5.60859">
        <ele>510</ele>
        <time>2015-04-19T09:51:57Z</time>
      </trkpt>
      <trkpt lat="50.00008" lon="5.60869">
        <ele>510</ele>
        <time>2015-04-19T09:52:02Z</time>
      </trkpt>
      <trkpt lat="50.00008" lon="5.60877">
        <ele>511</ele>
        <time>2015-04-19T09:52:07Z</time>
      </trkpt>
      <trkpt lat="50.00008" lon="5.60886">
        <ele>511</ele>
        <time>2015-04-19T09:52:12Z</time>
      </trkpt>
      <trkpt lat="50.00007" lon="5.60896">
        <ele>511</ele>
        <time>2015-04-19T09:52:17Z</time>
      </trkpt>
      <trkpt lat="50.00006" lon="5.60906">
        <ele>510</ele>
        <time>2015-04-19T09:52:23Z</time>
      </trkpt>
      <trkpt lat="50.00005" lon="5.60915">
        <ele>510</ele>
        <time>2015-04-19T09:52:28Z</time>
      </trkpt>
      <trkpt lat="50.00003" lon="5.60922">
        <ele>511</ele>
        <time>2015-04-19T09:52:33Z</time>
      </trkpt>
      <trkpt lat="50.00002" lon="5.6093">
        <ele>511</ele>
        <time>2015-04-19T09:52:38Z</time>
      </trkpt>
      <trkpt lat="50.00002" lon="5.60939">
        <ele>510</ele>
        <time>2015-04-19T09:52:43Z</time>
      </trkpt>
      <trkpt lat="50.00001" lon="5.60947">
        <ele>510</ele>
        <time>2015-04-19T09:52:48Z</time>
      </trkpt>
      <trkpt lat="50.00001" lon="5.60955">
        <ele>510</ele>
        <time>2015-04-19T09:52:53Z</time>
      </trkpt>
      <trkpt lat="50.00002" lon="5.60964">
        <ele>510</ele>
        <time>2015-04-19T09:52:58Z</time>
      </trkpt>
      <trkpt lat="50.00002" lon="5.60975">
        <ele>511</ele>
        <time>2015-04-19T09:53:03Z</time>
      </trkpt>
      <trkpt lat="50.00002" lon="5.60984">
        <ele>511</ele>
        <time>2015-04-19T09:53:08Z</time>
      </trkpt>
      <trkpt lat="50.00003" lon="5.60995">
        <ele>511</ele>
        <time>2015-04-19T09:53:14Z</time>
      </trkpt>
      <trkpt lat="50.00004" lon="5.61004">
        <ele>511</ele>
        <time>2015-04-19T09:53:20Z</time>
      </trkpt>
      <trkpt lat="50.00005" lon="5.61013">
        <ele>512</ele>
        <time>2015-04-19T09:53:25Z</time>
      </trkpt>
      <trkpt lat="50.00006" lon="5.6102">
        <ele>511</ele>
        <time>2015-04-19T09:53:30Z</time>
      </trkpt>
      <trkpt lat="50.00007" lon="5.61028">
        <ele>510</ele>
        <time>2015-04-19T09:53:35Z</time>
      </trkpt>
      <trkpt lat="50.0001" lon="5.61038">
        <ele>511</ele>
        <time>2015-04-19T09:53:40Z</time>
      </trkpt>
      <trkpt lat="50.00012" lon="5.61046">
        <ele>511</ele>
        <time>2015-04-19T09:53:45Z</time>
      </trkpt>
      <trkpt lat="50.00013" lon="5.61055">
        <ele>511</ele>
        <time>2015-04-19T09:53:50Z</time>
      </trkpt>
      <trkpt lat="50.00015" lon="5.61063">
        <ele>512</ele>
        <time>2015-04-19T09:53:55Z</time>
      </trkpt>
      <trkpt lat="50.00016" lon="5.61072">
        <ele>512</ele>
        <time>2015-04-19T09:54:00Z</time>
      </trkpt>
      <trkpt lat="50.00018" lon="5.61081">
        <ele>511</ele>
        <time>2015-04-19T09:54:06Z</time>
      </trkpt>
      <trkpt lat="50.0002" lon="5.61092">
        <ele>511</ele>
        <time>2015-04-19T09:54:11Z</time>
      </trkpt>
      <trkpt lat="50.00021" lon="5.61099">
        <ele>512</ele>
        <time>2015-04-19T09:54:16Z</time>
      </trkpt>
      <trkpt lat="50.00022" lon="5.61107">
        <ele>512</ele>
        <time>2015-04-19T09:54:21Z</time>
      </trkpt>
      <trkpt lat="50.00024" lon="5.61115">
        <ele>512</ele>
        <time>2015-04-19T09:54:26Z</time>
      </trkpt>
      <trkpt lat="50.00024" lon="5.61122">
        <ele>512</ele>
        <time>2015-04-19T09:54:31Z</time>
      </trkpt>
      <trkpt lat="50.00025" lon="5.6113">
        <ele>512</ele>
        <time>2015-04-19T09:54:37Z</time>
      </trkpt>
      <trkpt lat="50.00026" lon="5.61137">
        <ele>512</ele>
        <time>2015-04-19T09:54:42Z</time>
      </trkpt>
      <trkpt lat="50.00026" lon="5.61141">
        <ele>512</ele>
        <time>2015-04-19T09:54:47Z</time>
      </trkpt>
      <trkpt lat="50.00026" lon="5.61148">
        <ele>512</ele>
        <time>2015-04-19T09:54:52Z</time>
      </trkpt>
      <trkpt lat="50.00026" lon="5.61157">
        <ele>512</ele>
        <time>2015-04-19T09:54:57Z</time>
      </trkpt>
      <trkpt lat="50.00026" lon="5.61165">
        <ele>512</ele>
        <time>2015-04-19T09:55:02Z</time>
      </trkpt>
      <trkpt lat="50.00026" lon="5.61174">
        <ele>512</ele>
        <time>2015-04-19T09:55:07Z</time>
      </trkpt>
      <trkpt lat="50.00026" lon="5.61183">
        <ele>512</ele>
        <time>2015-04-19T09:55:12Z</time>
      </trkpt>
      <trkpt lat="50.00026" lon="5.61193">
        <ele>512</ele>
        <time>2015-04-19T09:55:18Z</time>
      </trkpt>
      <trkpt lat="50.00027" lon="5.612">
        <ele>512</ele>
        <time>2015-04-19T09:55:23Z</time>
      </trkpt>
      <trkpt lat="50.00029" lon="5.61203">
        <ele>512</ele>
        <time>2015-04-19T09:55:28Z</time>
      </trkpt>
      <trkpt lat="50.0003" lon="5.6121">
        <ele>512</ele>
        <time>2015-04-19T09:55:34Z</time>
      </trkpt>
      <trkpt lat="50.0003" lon="5.61221">
        <ele>512</ele>
        <time>2015-04-19T09:55:39Z</time>
      </trkpt>
      <trkpt lat="50.00031" lon="5.6123">
        <ele>512</ele>
        <time>2015-04-19T09:55:44Z</time>
      </trkpt>
      <trkpt lat="50.00034" lon="5.61241">
        <ele>511</ele>
        <time>2015-04-19T09:55:50Z</time>
      </trkpt>
      <trkpt lat="50.00035" lon="5.6125">
        <ele>511</ele>
        <time>2015-04-19T09:55:55Z</time>
      </trkpt>
      <trkpt lat="50.00037" lon="5.61258">
        <ele>511</ele>
        <time>2015-04-19T09:56:00Z</time>
      </trkpt>
      <trkpt lat="50.00039" lon="5.61265">
        <ele>510</ele>
        <time>2015-04-19T09:56:05Z</time>
      </trkpt>
      <trkpt lat="50.0004" lon="5.61272">
        <ele>510</ele>
        <time>2015-04-19T09:56:10Z</time>
      </trkpt>
      <trkpt lat="50.0004" lon="5.6128">
        <ele>510</ele>
        <time>2015-04-19T09:56:15Z</time>
      </trkpt>
      <trkpt lat="50.00041" lon="5.61289">
        <ele>509</ele>
        <time>2015-04-19T09:56:21Z</time>
      </trkpt>
      <trkpt lat="50.0004" lon="5.61295">
        <ele>508</ele>
        <time>2015-04-19T09:56:26Z</time>
      </trkpt>
      <trkpt lat="50.0004" lon="5.61304">
        <ele>509</ele>
        <time>2015-04-19T09:56:31Z</time>
      </trkpt>
      <trkpt lat="50.00039" lon="5.61313">
        <ele>508</ele>
        <time>2015-04-19T09:56:36Z</time>
      </trkpt>
      <trkpt lat="50.00038" lon="5.61322">
        <ele>508</ele>
        <time>2015-04-19T09:56:42Z</time>
      </trkpt>
      <trkpt lat="50.00036" lon="5.61332">
        <ele>507</ele>
        <time>2015-04-19T09:56:47Z</time>
      </trkpt>
      <trkpt lat="50.00035" lon="5.61341">
        <ele>508</ele>
        <time>2015-04-19T09:56:53Z</time>
      </trkpt>
      <trkpt lat="50.00035" lon="5.61351">
        <ele>508</ele>
        <time>2015-04-19T09:56:58Z</time>
      </trkpt>
      <trkpt lat="50.00034" lon="5.61361">
        <ele>508</ele>
        <time>2015-04-19T09:57:03Z</time>
      </trkpt>
      <trkpt lat="50.00034" lon="5.61369">
        <ele>508</ele>
        <time>2015-04-19T09:57:08Z</time>
      </trkpt>
      <trkpt lat="50.00035" lon="5.61379">
        <ele>507</ele>
        <time>2015-04-19T09:57:13Z</time>
      </trkpt>
      <trkpt lat="50.00035" lon="5.61388">
        <ele>507</ele>
        <time>2015-04-19T09:57:18Z</time>
      </trkpt>
      <trkpt lat="50.00034" lon="5.61398">
        <ele>507</ele>
        <time>2015-04-19T09:57:23Z</time>
      </trkpt>
      <trkpt lat="50.00032" lon="5.61409">
        <ele>508</ele>
        <time>2015-04-19T09:57:29Z</time>
      </trkpt>
      <trkpt lat="50.0003" lon="5.61417">
        <ele>508</ele>
        <time>2015-04-19T09:57:34Z</time>
      </trkpt>
      <trkpt lat="50.00029" lon="5.61426">
        <ele>508</ele>
        <time>2015-04-19T09:57:39Z</time>
      </trkpt>
      <trkpt lat="50.00029" lon="5.61437">
        <ele>508</ele>
        <time>2015-04-19T09:57:45Z</time>
      </trkpt>
      <trkpt lat="50.00027" lon="5.61444">
        <ele>507</ele>
        <time>2015-04-19T09:57:51Z</time>
      </trkpt>
      <trkpt lat="50.00026" lon="5.61455">
        <ele>507</ele>
        <time>2015-04-19T09:57:56Z</time>
      </trkpt>
      <trkpt lat="50.00024" lon="5.61464">
        <ele>506</ele>
        <time>2015-04-19T09:58:02Z</time>
      </trkpt>
      <trkpt lat="50.00022" lon="5.61475">
        <ele>506</ele>
        <time>2015-04-19T09:58:07Z</time>
      </trkpt>
      <trkpt lat="50.0002" lon="5.61484">
        <ele>506</ele>
        <time>2015-04-19T09:58:12Z</time>
      </trkpt>
      <trkpt lat="50.00019" lon="5.61492">
        <ele>506</ele>
        <time>2015-04-19T09:58:17Z</time>
      </trkpt>
      <trkpt lat="50.00019" lon="5.61496">
        <ele>507</ele>
        <time>2015-04-19T09:58:22Z</time>
      </trkpt>
      <trkpt lat="50.00017" lon="5.61505">
        <ele>507</ele>
        <time>2015-04-19T09:58:27Z</time>
      </trkpt>
      <trkpt lat="50.00014" lon="5.61514">
        <ele>507</ele>
        <time>2015-04-19T09:58:33Z</time>
      </trkpt>
      <trkpt lat="50.00014" lon="5.6152">
        <ele>507</ele>
        <time>2015-04-19T09:58:38Z</time>
      </trkpt>
      <trkpt lat="50.00013" lon="5.61524">
        <ele>508</ele>
        <time>2015-04-19T09:58:44Z</time>
      </trkpt>
      <trkpt lat="50.00012" lon="5.6153">
        <ele>508</ele>
        <time>2015-04-19T09:58:49Z</time>
      </trkpt>
      <trkpt lat="50.00012" lon="5.61533">
        <ele>508</ele>
        <time>2015-04-19T09:58:54Z</time>
      </trkpt>
      <trkpt lat="50.00011" lon="5.61538">
        <ele>508</ele>
        <time>2015-04-19T09:58:59Z</time>
      </trkpt>
      <trkpt lat="50.0001" lon="5.61546">
        <ele>508</ele>
        <time>2015-04-19T09:59:06Z</time>
      </trkpt>
      <trkpt lat="50.0001" lon="5.61557">
        <ele>507</ele>
        <time>2015-04-19T09:59:11Z</time>
      </trkpt>
      <trkpt lat="50.00009" lon="5.61565">
        <ele>507</ele>
        <time>2015-04-19T09:59:17Z</time>
      </trkpt>
      <trkpt lat="50.00009" lon="5.61576">
        <ele>507</ele>
        <time>2015-04-19T09:59:23Z</time>
      </trkpt>
      <trkpt lat="50.00009" lon="5.61586">
        <ele>506</ele>
        <time>2015-04-19T09:59:28Z</time>
      </trkpt>
      <trkpt lat="50.0001" lon="5.61595">
        <ele>506</ele>
        <time>2015-04-19T09:59:34Z</time>
      </trkpt>
      <trkpt lat="50.00011" lon="5.61605">
        <ele>506</ele>
        <time>2015-04-19T09:59:39Z</time>
      </trkpt>
      <trkpt lat="50.00011" lon="5.61614">
        <ele>506</ele>
        <time>2015-04-19T09:59:45Z</time>
      </trkpt>
      <trkpt lat="50.00012" lon="5.61625">
        <ele>505</ele>
        <time>2015-04-19T09:59:50Z</time>
      </trkpt>
      <trkpt lat="50.00013" lon="5.61633">
        <ele>505</ele>
        <time>2015-04-19T09:59:55Z</time>
      </trkpt>
      <trkpt lat="50.00013" lon="5.61641">
        <ele>505</ele>
        <time>2015-04-19T10:00:01Z</time>
      </trkpt>
      <trkpt lat="50.00008" lon="5.61646">
        <ele>506</ele>
        <time>2015-04-19T10:00:07Z</time>
      </trkpt>
      <trkpt lat="50.00003" lon="5.61643">
        <ele>506</ele>
        <time>2015-04-19T10:00:12Z</time>
      </trkpt>
      <trkpt lat="49.99997" lon="5.6164">
        <ele>506</ele>
        <time>2015-04-19T10:00:17Z</time>
      </trkpt>
      <trkpt lat="49.99992" lon="5.61637">
        <ele>506</ele>
        <time>2015-04-19T10:00:23Z</time>
      </trkpt>
      <trkpt lat="49.99986" lon="5.61634">
        <ele>506</ele>
        <time>2015-04-19T10:00:28Z</time>
      </trkpt>
      <trkpt lat="49.99981" lon="5.6163">
        <ele>506</ele>
        <time>2015-04-19T10:00:34Z</time>
      </trkpt>
      <trkpt lat="49.99975" lon="5.61627">
        <ele>506</ele>
        <time>2015-04-19T10:00:39Z</time>
      </trkpt>
      <trkpt lat="49.99968" lon="5.61624">
        <ele>505</ele>
        <time>2015-04-19T10:00:45Z</time>
      </trkpt>
      <trkpt lat="49.99961" lon="5.6162">
        <ele>505</ele>
        <time>2015-04-19T10:00:52Z</time>
      </trkpt>
      <trkpt lat="49.99955" lon="5.61617">
        <ele>505</ele>
        <time>2015-04-19T10:00:57Z</time>
      </trkpt>
      <trkpt lat="49.99949" lon="5.61614">
        <ele>505</ele>
        <time>2015-04-19T10:01:02Z</time>
      </trkpt>
      <trkpt lat="49.99942" lon="5.6161">
        <ele>505</ele>
        <time>2015-04-19T10:01:09Z</time>
      </trkpt>
      <trkpt lat="49.99936" lon="5.61607">
        <ele>505</ele>
        <time>2015-04-19T10:01:14Z</time>
      </trkpt>
      <trkpt lat="49.99929" lon="5.61604">
        <ele>504</ele>
        <time>2015-04-19T10:01:21Z</time>
      </trkpt>
      <trkpt lat="49.99922" lon="5.61603">
        <ele>503</ele>
        <time>2015-04-19T10:01:27Z</time>
      </trkpt>
      <trkpt lat="49.99915" lon="5.61599">
        <ele>504</ele>
        <time>2015-04-19T10:01:32Z</time>
      </trkpt>
      <trkpt lat="49.99909" lon="5.61596">
        <ele>503</ele>
        <time>2015-04-19T10:01:38Z</time>
      </trkpt>
      <trkpt lat="49.99905" lon="5.61594">
        <ele>503</ele>
        <time>2015-04-19T10:01:44Z</time>
      </trkpt>
      <trkpt lat="49.99905" lon="5.61594">
        <ele>501</ele>
        <time>2015-04-19T10:01:50Z</time>
      </trkpt>
      <trkpt lat="49.99901" lon="5.61592">
        <ele>502</ele>
        <time>2015-04-19T10:01:56Z</time>
      </trkpt>
      <trkpt lat="49.99894" lon="5.61589">
        <ele>502</ele>
        <time>2015-04-19T10:02:02Z</time>
      </trkpt>
      <trkpt lat="49.99887" lon="5.61585">
        <ele>501</ele>
        <time>2015-04-19T10:02:08Z</time>
      </trkpt>
      <trkpt lat="49.99881" lon="5.61582">
        <ele>501</ele>
        <time>2015-04-19T10:02:14Z</time>
      </trkpt>
      <trkpt lat="49.99874" lon="5.61579">
        <ele>500</ele>
        <time>2015-04-19T10:02:19Z</time>
      </trkpt>
      <trkpt lat="49.99868" lon="5.61577">
        <ele>500</ele>
        <time>2015-04-19T10:02:25Z</time>
      </trkpt>
      <trkpt lat="49.99861" lon="5.61576">
        <ele>500</ele>
        <time>2015-04-19T10:02:30Z</time>
      </trkpt>
      <trkpt lat="49.99854" lon="5.61575">
        <ele>499</ele>
        <time>2015-04-19T10:02:37Z</time>
      </trkpt>
      <trkpt lat="49.99847" lon="5.61574">
        <ele>499</ele>
        <time>2015-04-19T10:02:42Z</time>
      </trkpt>
      <trkpt lat="49.99842" lon="5.61574">
        <ele>499</ele>
        <time>2015-04-19T10:02:48Z</time>
      </trkpt>
      <trkpt lat="49.99835" lon="5.61574">
        <ele>499</ele>
        <time>2015-04-19T10:02:54Z</time>
      </trkpt>
      <trkpt lat="49.99828" lon="5.61575">
        <ele>498</ele>
        <time>2015-04-19T10:02:59Z</time>
      </trkpt>
      <trkpt lat="49.99822" lon="5.61575">
        <ele>499</ele>
        <time>2015-04-19T10:03:04Z</time>
      </trkpt>
      <trkpt lat="49.99814" lon="5.61576">
        <ele>498</ele>
        <time>2015-04-19T10:03:11Z</time>
      </trkpt>
      <trkpt lat="49.99807" lon="5.61578">
        <ele>497</ele>
        <time>2015-04-19T10:03:17Z</time>
      </trkpt>
      <trkpt lat="49.99802" lon="5.6158">
        <ele>497</ele>
        <time>2015-04-19T10:03:22Z</time>
      </trkpt>
      <trkpt lat="49.99796" lon="5.61582">
        <ele>498</ele>
        <time>2015-04-19T10:03:28Z</time>
      </trkpt>
      <trkpt lat="49.99791" lon="5.61586">
        <ele>497</ele>
        <time>2015-04-19T10:03:33Z</time>
      </trkpt>
      <trkpt lat="49.99785" lon="5.61589">
        <ele>497</ele>
        <time>2015-04-19T10:03:38Z</time>
      </trkpt>
      <trkpt lat="49.99781" lon="5.61592">
        <ele>497</ele>
        <time>2015-04-19T10:03:43Z</time>
      </trkpt>
      <trkpt lat="49.99778" lon="5.61597">
        <ele>497</ele>
        <time>2015-04-19T10:03:49Z</time>
      </trkpt>
      <trkpt lat="49.99773" lon="5.61599">
        <ele>497</ele>
        <time>2015-04-19T10:03:54Z</time>
      </trkpt>
      <trkpt lat="49.99767" lon="5.61603">
        <ele>497</ele>
        <time>2015-04-19T10:04:00Z</time>
      </trkpt>
      <trkpt lat="49.99763" lon="5.61604">
        <ele>497</ele>
        <time>2015-04-19T10:04:05Z</time>
      </trkpt>
      <trkpt lat="49.99762" lon="5.61605">
        <ele>497</ele>
        <time>2015-04-19T10:04:12Z</time>
      </trkpt>
      <trkpt lat="49.99761" lon="5.61607">
        <ele>497</ele>
        <time>2015-04-19T10:04:17Z</time>
      </trkpt>
      <trkpt lat="49.99759" lon="5.61608">
        <ele>497</ele>
        <time>2015-04-19T10:04:24Z</time>
      </trkpt>
      <trkpt lat="49.99757" lon="5.61604">
        <ele>497</ele>
        <time>2015-04-19T10:04:29Z</time>
      </trkpt>
      <trkpt lat="49.99754" lon="5.61604">
        <ele>496</ele>
        <time>2015-04-19T10:04:35Z</time>
      </trkpt>
      <trkpt lat="49.99753" lon="5.61603">
        <ele>496</ele>
        <time>2015-04-19T10:04:41Z</time>
      </trkpt>
      <trkpt lat="49.99753" lon="5.61603">
        <ele>496</ele>
        <time>2015-04-19T10:04:46Z</time>
      </trkpt>
      <trkpt lat="49.99752" lon="5.61604">
        <ele>496</ele>
        <time>2015-04-19T10:04:52Z</time>
      </trkpt>
      <trkpt lat="49.99748" lon="5.61605">
        <ele>496</ele>
        <time>2015-04-19T10:04:57Z</time>
      </trkpt>
      <trkpt lat="49.99743" lon="5.61607">
        <ele>496</ele>
        <time>2015-04-19T10:05:03Z</time>
      </trkpt>
      <trkpt lat="49.99738" lon="5.61609">
        <ele>496</ele>
        <time>2015-04-19T10:05:08Z</time>
      </trkpt>
      <trkpt lat="49.99732" lon="5.61611">
        <ele>496</ele>
        <time>2015-04-19T10:05:14Z</time>
      </trkpt>
      <trkpt lat="49.99727" lon="5.61613">
        <ele>495</ele>
        <time>2015-04-19T10:05:19Z</time>
      </trkpt>
      <trkpt lat="49.99721" lon="5.61615">
        <ele>495</ele>
        <time>2015-04-19T10:05:25Z</time>
      </trkpt>
      <trkpt lat="49.99716" lon="5.61617">
        <ele>494</ele>
        <time>2015-04-19T10:05:31Z</time>
      </trkpt>
      <trkpt lat="49.99712" lon="5.61618">
        <ele>494</ele>
        <time>2015-04-19T10:05:37Z</time>
      </trkpt>
      <trkpt lat="49.99715" lon="5.61617">
        <ele>494</ele>
        <time>2015-04-19T10:05:43Z</time>
      </trkpt>
      <trkpt lat="49.99713" lon="5.61616">
        <ele>494</ele>
        <time>2015-04-19T10:05:48Z</time>
      </trkpt>
      <trkpt lat="49.99708" lon="5.61617">
        <ele>494</ele>
        <time>2015-04-19T10:05:54Z</time>
      </trkpt>
      <trkpt lat="49.99701" lon="5.61618">
        <ele>494</ele>
        <time>2015-04-19T10:06:00Z</time>
      </trkpt>
      <trkpt lat="49.99694" lon="5.61619">
        <ele>494</ele>
        <time>2015-04-19T10:06:06Z</time>
      </trkpt>
      <trkpt lat="49.99688" lon="5.61621">
        <ele>493</ele>
        <time>2015-04-19T10:06:11Z</time>
      </trkpt>
      <trkpt lat="49.99684" lon="5.61622">
        <ele>493</ele>
        <time>2015-04-19T10:06:16Z</time>
      </trkpt>
      <trkpt lat="49.99679" lon="5.61623">
        <ele>492</ele>
        <time>2015-04-19T10:06:22Z</time>
      </trkpt>
      <trkpt lat="49.99673" lon="5.61625">
        <ele>492</ele>
        <time>2015-04-19T10:06:28Z</time>
      </trkpt>
      <trkpt lat="49.99667" lon="5.61627">
        <ele>492</ele>
        <time>2015-04-19T10:06:34Z</time>
      </trkpt>
      <trkpt lat="49.99659" lon="5.61628">
        <ele>492</ele>
        <time>2015-04-19T10:06:39Z</time>
      </trkpt>
      <trkpt lat="49.99653" lon="5.61631">
        <ele>491</ele>
        <time>2015-04-19T10:06:46Z</time>
      </trkpt>
      <trkpt lat="49.99646" lon="5.61631">
        <ele>491</ele>
        <time>2015-04-19T10:06:52Z</time>
      </trkpt>
      <trkpt lat="49.99639" lon="5.61632">
        <ele>490</ele>
        <time>2015-04-19T10:06:58Z</time>
      </trkpt>
      <trkpt lat="49.99633" lon="5.61633">
        <ele>489</ele>
        <time>2015-04-19T10:07:03Z</time>
      </trkpt>
      <trkpt lat="49.99626" lon="5.61635">
        <ele>489</ele>
        <time>2015-04-19T10:07:08Z</time>
      </trkpt>
      <trkpt lat="49.9962" lon="5.61636">
        <ele>488</ele>
        <time>2015-04-19T10:07:13Z</time>
      </trkpt>
      <trkpt lat="49.99612" lon="5.61637">
        <ele>488</ele>
        <time>2015-04-19T10:07:19Z</time>
      </trkpt>
      <trkpt lat="49.99605" lon="5.61639">
        <ele>488</ele>
        <time>2015-04-19T10:07:25Z</time>
      </trkpt>
      <trkpt lat="49.99598" lon="5.61642">
        <ele>489</ele>
        <time>2015-04-19T10:07:30Z</time>
      </trkpt>
      <trkpt lat="49.99591" lon="5.61645">
        <ele>488</ele>
        <time>2015-04-19T10:07:36Z</time>
      </trkpt>
      <trkpt lat="49.99585" lon="5.61647">
        <ele>488</ele>
        <time>2015-04-19T10:07:42Z</time>
      </trkpt>
      <trkpt lat="49.99577" lon="5.61651">
        <ele>487</ele>
        <time>2015-04-19T10:07:47Z</time>
      </trkpt>
      <trkpt lat="49.99572" lon="5.61653">
        <ele>487</ele>
        <time>2015-04-19T10:07:53Z</time>
      </trkpt>
      <trkpt lat="49.99566" lon="5.61657">
        <ele>486</ele>
        <time>2015-04-19T10:07:58Z</time>
      </trkpt>
      <trkpt lat="49.9956" lon="5.6166">
        <ele>486</ele>
        <time>2015-04-19T10:08:04Z</time>
      </trkpt>
      <trkpt lat="49.99554" lon="5.61664">
        <ele>485</ele>
        <time>2015-04-19T10:08:09Z</time>
      </trkpt>
      <trkpt lat="49.99547" lon="5.61668">
        <ele>485</ele>
        <time>2015-04-19T10:08:16Z</time>
      </trkpt>
      <trkpt lat="49.99542" lon="5.61673">
        <ele>485</ele>
        <time>2015-04-19T10:08:21Z</time>
      </trkpt>
      <trkpt lat="49.99536" lon="5.61678">
        <ele>485</ele>
        <time>2015-04-19T10:08:26Z</time>
      </trkpt>
      <trkpt lat="49.9953" lon="5.61682">
        <ele>485</ele>
        <time>2015-04-19T10:08:33Z</time>
      </trkpt>
      <trkpt lat="49.99524" lon="5.61685">
        <ele>484</ele>
        <time>2015-04-19T10:08:38Z</time>
      </trkpt>
      <trkpt lat="49.99519" lon="5.61689">
        <ele>484</ele>
        <time>2015-04-19T10:08:44Z</time>
      </trkpt>
      <trkpt lat="49.99511" lon="5.61694">
        <ele>484</ele>
        <time>2015-04-19T10:08:49Z</time>
      </trkpt>
      <trkpt lat="49.99505" lon="5.61697">
        <ele>484</ele>
        <time>2015-04-19T10:08:55Z</time>
      </trkpt>
      <trkpt lat="49.99499" lon="5.61698">
        <ele>483</ele>
        <time>2015-04-19T10:09:00Z</time>
      </trkpt>
      <trkpt lat="49.99492" lon="5.61699">
        <ele>483</ele>
        <time>2015-04-19T10:09:06Z</time>
      </trkpt>
      <trkpt lat="49.99484" lon="5.617">
        <ele>483</ele>
        <time>2015-04-19T10:09:12Z</time>
      </trkpt>
      <trkpt lat="49.99477" lon="5.617">
        <ele>483</ele>
        <time>2015-04-19T10:09:17Z</time>
      </trkpt>
      <trkpt lat="49.99471" lon="5.61699">
        <ele>483</ele>
        <time>2015-04-19T10:09:24Z</time>
      </trkpt>
      <trkpt lat="49.99464" lon="5.61698">
        <ele>483</ele>
        <time>2015-04-19T10:09:29Z</time>
      </trkpt>
      <trkpt lat="49.99458" lon="5.61698">
        <ele>483</ele>
        <time>2015-04-19T10:09:35Z</time>
      </trkpt>
      <trkpt lat="49.99453" lon="5.61698">
        <ele>483</ele>
        <time>2015-04-19T10:09:41Z</time>
      </trkpt>
      <trkpt lat="49.99451" lon="5.61699">
        <ele>483</ele>
        <time>2015-04-19T10:09:46Z</time>
      </trkpt>
      <trkpt lat="49.99448" lon="5.61699">
        <ele>483</ele>
        <time>2015-04-19T10:09:52Z</time>
      </trkpt>
      <trkpt lat="49.99442" lon="5.617">
        <ele>483</ele>
        <time>2015-04-19T10:09:57Z</time>
      </trkpt>
      <trkpt lat="49.99437" lon="5.61702">
        <ele>483</ele>
        <time>2015-04-19T10:10:02Z</time>
      </trkpt>
      <trkpt lat="49.99431" lon="5.61702">
        <ele>483</ele>
        <time>2015-04-19T10:10:07Z</time>
      </trkpt>
      <trkpt lat="49.99426" lon="5.61701">
        <ele>483</ele>
        <time>2015-04-19T10:10:12Z</time>
      </trkpt>
      <trkpt lat="49.9942" lon="5.61698">
        <ele>483</ele>
        <time>2015-04-19T10:10:17Z</time>
      </trkpt>
      <trkpt lat="49.99414" lon="5.61695">
        <ele>483</ele>
        <time>2015-04-19T10:10:23Z</time>
      </trkpt>
      <trkpt lat="49.99408" lon="5.61692">
        <ele>483</ele>
        <time>2015-04-19T10:10:28Z</time>
      </trkpt>
      <trkpt lat="49.99403" lon="5.61688">
        <ele>483</ele>
        <time>2015-04-19T10:10:33Z</time>
      </trkpt>
      <trkpt lat="49.99398" lon="5.61682">
        <ele>483</ele>
        <time>2015-04-19T10:10:39Z</time>
      </trkpt>
      <trkpt lat="49.99392" lon="5.61677">
        <ele>484</ele>
        <time>2015-04-19T10:10:45Z</time>
      </trkpt>
      <trkpt lat="49.99385" lon="5.61671">
        <ele>484</ele>
        <time>2015-04-19T10:10:51Z</time>
      </trkpt>
      <trkpt lat="49.99379" lon="5.61666">
        <ele>484</ele>
        <time>2015-04-19T10:10:56Z</time>
      </trkpt>
      <trkpt lat="49.99374" lon="5.61663">
        <ele>484</ele>
        <time>2015-04-19T10:11:01Z</time>
      </trkpt>
      <trkpt lat="49.99368" lon="5.61658">
        <ele>484</ele>
        <time>2015-04-19T10:11:08Z</time>
      </trkpt>
      <trkpt lat="49.99361" lon="5.6165">
        <ele>484</ele>
        <time>2015-04-19T10:11:14Z</time>
      </trkpt>
      <trkpt lat="49.99355" lon="5.61643">
        <ele>484</ele>
        <time>2015-04-19T10:11:19Z</time>
      </trkpt>
      <trkpt lat="49.99351" lon="5.61637">
        <ele>484</ele>
        <time>2015-04-19T10:11:24Z</time>
      </trkpt>
      <trkpt lat="49.99346" lon="5.61631">
        <ele>484</ele>
        <time>2015-04-19T10:11:30Z</time>
      </trkpt>
      <trkpt lat="49.99342" lon="5.61626">
        <ele>484</ele>
        <time>2015-04-19T10:11:36Z</time>
      </trkpt>
      <trkpt lat="49.99338" lon="5.61618">
        <ele>483</ele>
        <time>2015-04-19T10:11:41Z</time>
      </trkpt>
      <trkpt lat="49.99334" lon="5.61612">
        <ele>483</ele>
        <time>2015-04-19T10:11:46Z</time>
      </trkpt>
      <trkpt lat="49.9933" lon="5.61607">
        <ele>483</ele>
        <time>2015-04-19T10:11:52Z</time>
      </trkpt>
      <trkpt lat="49.99324" lon="5.616">
        <ele>482</ele>
        <time>2015-04-19T10:11:57Z</time>
      </trkpt>
      <trkpt lat="49.9932" lon="5.61593">
        <ele>482</ele>
        <time>2015-04-19T10:12:02Z</time>
      </trkpt>
      <trkpt lat="49.99316" lon="5.61586">
        <ele>481</ele>
        <time>2015-04-19T10:12:09Z</time>
      </trkpt>
      <trkpt lat="49.9931" lon="5.61577">
        <ele>481</ele>
        <time>2015-04-19T10:12:14Z</time>
      </trkpt>
      <trkpt lat="49.99306" lon="5.61568">
        <ele>481</ele>
        <time>2015-04-19T10:12:19Z</time>
      </trkpt>
      <trkpt lat="49.99301" lon="5.61558">
        <ele>480</ele>
        <time>2015-04-19T10:12:26Z</time>
      </trkpt>
      <trkpt lat="49.99301" lon="5.61547">
        <ele>480</ele>
        <time>2015-04-19T10:12:31Z</time>
      </trkpt>
      <trkpt lat="49.99301" lon="5.6154">
        <ele>481</ele>
        <time>2015-04-19T10:12:36Z</time>
      </trkpt>
      <trkpt lat="49.99302" lon="5.61529">
        <ele>481</ele>
        <time>2015-04-19T10:12:42Z</time>
      </trkpt>
      <trkpt lat="49.99303" lon="5.6152">
        <ele>481</ele>
        <time>2015-04-19T10:12:48Z</time>
      </trkpt>
      <trkpt lat="49.99303" lon="5.61513">
        <ele>481</ele>
        <time>2015-04-19T10:12:54Z</time>
      </trkpt>
      <trkpt lat="49.99304" lon="5.61509">
        <ele>481</ele>
        <time>2015-04-19T10:12:59Z</time>
      </trkpt>
      <trkpt lat="49.99306" lon="5.61506">
        <ele>480</ele>
        <time>2015-04-19T10:13:05Z</time>
      </trkpt>
      <trkpt lat="49.99306" lon="5.61505">
        <ele>481</ele>
        <time>2015-04-19T10:13:10Z</time>
      </trkpt>
      <trkpt lat="49.99306" lon="5.61504">
        <ele>481</ele>
        <time>2015-04-19T10:13:16Z</time>
      </trkpt>
      <trkpt lat="49.99306" lon="5.615">
        <ele>481</ele>
        <time>2015-04-19T10:13:23Z</time>
      </trkpt>
      <trkpt lat="49.99308" lon="5.61493">
        <ele>482</ele>
        <time>2015-04-19T10:13:28Z</time>
      </trkpt>
      <trkpt lat="49.99308" lon="5.61485">
        <ele>482</ele>
        <time>2015-04-19T10:13:33Z</time>
      </trkpt>
      <trkpt lat="49.99307" lon="5.61475">
        <ele>482</ele>
        <time>2015-04-19T10:13:39Z</time>
      </trkpt>
      <trkpt lat="49.99305" lon="5.61467">
        <ele>482</ele>
        <time>2015-04-19T10:13:45Z</time>
      </trkpt>
      <trkpt lat="49.99306" lon="5.61464">
        <ele>482</ele>
        <time>2015-04-19T10:13:50Z</time>
      </trkpt>
      <trkpt lat="49.99307" lon="5.61463">
        <ele>482</ele>
        <time>2015-04-19T10:13:56Z</time>
      </trkpt>
      <trkpt lat="49.99308" lon="5.61463">
        <ele>483</ele>
        <time>2015-04-19T10:14:01Z</time>
      </trkpt>
      <trkpt lat="49.99307" lon="5.61461">
        <ele>482</ele>
        <time>2015-04-19T10:14:07Z</time>
      </trkpt>
      <trkpt lat="49.99306" lon="5.6146">
        <ele>482</ele>
        <time>2015-04-19T10:14:12Z</time>
      </trkpt>
      <trkpt lat="49.99304" lon="5.61457">
        <ele>482</ele>
        <time>2015-04-19T10:14:18Z</time>
      </trkpt>
      <trkpt lat="49.99302" lon="5.61452">
        <ele>483</ele>
        <time>2015-04-19T10:14:23Z</time>
      </trkpt>
      <trkpt lat="49.993" lon="5.61447">
        <ele>482</ele>
        <time>2015-04-19T10:14:29Z</time>
      </trkpt>
      <trkpt lat="49.99298" lon="5.61439">
        <ele>482</ele>
        <time>2015-04-19T10:14:35Z</time>
      </trkpt>
      <trkpt lat="49.99295" lon="5.61431">
        <ele>482</ele>
        <time>2015-04-19T10:14:40Z</time>
      </trkpt>
      <trkpt lat="49.99292" lon="5.61422">
        <ele>483</ele>
        <time>2015-04-19T10:14:46Z</time>
      </trkpt>
      <trkpt lat="49.99289" lon="5.61414">
        <ele>482</ele>
        <time>2015-04-19T10:14:53Z</time>
      </trkpt>
      <trkpt lat="49.99286" lon="5.61407">
        <ele>483</ele>
        <time>2015-04-19T10:14:58Z</time>
      </trkpt>
      <trkpt lat="49.99285" lon="5.61403">
        <ele>483</ele>
        <time>2015-04-19T10:15:04Z</time>
      </trkpt>
      <trkpt lat="49.99285" lon="5.61403">
        <ele>482</ele>
        <time>2015-04-19T10:15:09Z</time>
      </trkpt>
      <trkpt lat="49.99286" lon="5.61403">
        <ele>482</ele>
        <time>2015-04-19T10:15:15Z</time>
      </trkpt>
      <trkpt lat="49.99284" lon="5.61399">
        <ele>483</ele>
        <time>2015-04-19T10:15:20Z</time>
      </trkpt>
      <trkpt lat="49.99282" lon="5.61392">
        <ele>483</ele>
        <time>2015-04-19T10:15:25Z</time>
      </trkpt>
      <trkpt lat="49.99279" lon="5.61384">
        <ele>483</ele>
        <time>2015-04-19T10:15:31Z</time>
      </trkpt>
      <trkpt lat="49.99277" lon="5.61379">
        <ele>483</ele>
        <time>2015-04-19T10:15:36Z</time>
      </trkpt>
      <trkpt lat="49.99274" lon="5.61372">
        <ele>484</ele>
        <time>2015-04-19T10:15:42Z</time>
      </trkpt>
      <trkpt lat="49.99271" lon="5.61367">
        <ele>484</ele>
        <time>2015-04-19T10:15:47Z</time>
      </trkpt>
      <trkpt lat="49.99267" lon="5.61361">
        <ele>484</ele>
        <time>2015-04-19T10:15:53Z</time>
      </trkpt>
      <trkpt lat="49.99265" lon="5.61356">
        <ele>485</ele>
        <time>2015-04-19T10:15:58Z</time>
      </trkpt>
      <trkpt lat="49.99263" lon="5.61352">
        <ele>485</ele>
        <time>2015-04-19T10:16:03Z</time>
      </trkpt>
      <trkpt lat="49.99258" lon="5.61344">
        <ele>485</ele>
        <time>2015-04-19T10:16:09Z</time>
      </trkpt>
      <trkpt lat="49.99255" lon="5.61338">
        <ele>485</ele>
        <time>2015-04-19T10:16:14Z</time>
      </trkpt>
      <trkpt lat="49.99249" lon="5.61332">
        <ele>485</ele>
        <time>2015-04-19T10:16:21Z</time>
      </trkpt>
      <trkpt lat="49.99243" lon="5.61325">
        <ele>486</ele>
        <time>2015-04-19T10:16:26Z</time>
      </trkpt>
      <trkpt lat="49.99237" lon="5.61319">
        <ele>486</ele>
        <time>2015-04-19T10:16:33Z</time>
      </trkpt>
      <trkpt lat="49.99232" lon="5.61314">
        <ele>486</ele>
        <time>2015-04-19T10:16:38Z</time>
      </trkpt>
      <trkpt lat="49.99228" lon="5.61309">
        <ele>487</ele>
        <time>2015-04-19T10:16:44Z</time>
      </trkpt>
      <trkpt lat="49.99223" lon="5.61304">
        <ele>487</ele>
        <time>2015-04-19T10:16:50Z</time>
      </trkpt>
      <trkpt lat="49.99218" lon="5.61301">
        <ele>488</ele>
        <time>2015-04-19T10:16:55Z</time>
      </trkpt>
      <trkpt lat="49.99212" lon="5.61297">
        <ele>488</ele>
        <time>2015-04-19T10:17:01Z</time>
      </trkpt>
      <trkpt lat="49.99207" lon="5.61293">
        <ele>489</ele>
        <time>2015-04-19T10:17:06Z</time>
      </trkpt>
      <trkpt lat="49.99201" lon="5.61288">
        <ele>490</ele>
        <time>2015-04-19T10:17:11Z</time>
      </trkpt>
      <trkpt lat="49.99197" lon="5.61281">
        <ele>490</ele>
        <time>2015-04-19T10:17:16Z</time>
      </trkpt>
      <trkpt lat="49.99193" lon="5.61273">
        <ele>491</ele>
        <time>2015-04-19T10:17:22Z</time>
      </trkpt>
      <trkpt lat="49.99192" lon="5.61265">
        <ele>490</ele>
        <time>2015-04-19T10:17:28Z</time>
      </trkpt>
      <trkpt lat="49.99192" lon="5.61262">
        <ele>491</ele>
        <time>2015-04-19T10:17:33Z</time>
      </trkpt>
      <trkpt lat="49.99192" lon="5.61251">
        <ele>491</ele>
        <time>2015-04-19T10:17:38Z</time>
      </trkpt>
      <trkpt lat="49.99193" lon="5.61242">
        <ele>491</ele>
        <time>2015-04-19T10:17:43Z</time>
      </trkpt>
      <trkpt lat="49.99194" lon="5.6123">
        <ele>493</ele>
        <time>2015-04-19T10:17:49Z</time>
      </trkpt>
      <trkpt lat="49.99194" lon="5.61221">
        <ele>492</ele>
        <time>2015-04-19T10:17:55Z</time>
      </trkpt>
      <trkpt lat="49.99195" lon="5.61212">
        <ele>492</ele>
        <time>2015-04-19T10:18:00Z</time>
      </trkpt>
      <trkpt lat="49.99196" lon="5.61211">
        <ele>492</ele>
        <time>2015-04-19T10:18:06Z</time>
      </trkpt>
      <trkpt lat="49.99197" lon="5.61201">
        <ele>493</ele>
        <time>2015-04-19T10:18:12Z</time>
      </trkpt>
      <trkpt lat="49.99197" lon="5.61193">
        <ele>493</ele>
        <time>2015-04-19T10:18:17Z</time>
      </trkpt>
      <trkpt lat="49.99198" lon="5.61181">
        <ele>494</ele>
        <time>2015-04-19T10:18:23Z</time>
      </trkpt>
      <trkpt lat="49.99199" lon="5.61173">
        <ele>494</ele>
        <time>2015-04-19T10:18:28Z</time>
      </trkpt>
      <trkpt lat="49.992" lon="5.61162">
        <ele>494</ele>
        <time>2015-04-19T10:18:34Z</time>
      </trkpt>
      <trkpt lat="49.992" lon="5.61153">
        <ele>494</ele>
        <time>2015-04-19T10:18:39Z</time>
      </trkpt>
      <trkpt lat="49.992" lon="5.61151">
        <ele>494</ele>
        <time>2015-04-19T10:18:45Z</time>
      </trkpt>
      <trkpt lat="49.992" lon="5.6115">
        <ele>494</ele>
        <time>2015-04-19T10:18:51Z</time>
      </trkpt>
      <trkpt lat="49.99199" lon="5.61149">
        <ele>494</ele>
        <time>2015-04-19T10:18:56Z</time>
      </trkpt>
      <trkpt lat="49.99199" lon="5.61149">
        <ele>494</ele>
        <time>2015-04-19T10:19:02Z</time>
      </trkpt>
      <trkpt lat="49.992" lon="5.61142">
        <ele>494</ele>
        <time>2015-04-19T10:19:07Z</time>
      </trkpt>
      <trkpt lat="49.99201" lon="5.61134">
        <ele>495</ele>
        <time>2015-04-19T10:19:12Z</time>
      </trkpt>
      <trkpt lat="49.99202" lon="5.61123">
        <ele>495</ele>
        <time>2015-04-19T10:19:18Z</time>
      </trkpt>
      <trkpt lat="49.99203" lon="5.61115">
        <ele>495</ele>
        <time>2015-04-19T10:19:23Z</time>
      </trkpt>
      <trkpt lat="49.99203" lon="5.61104">
        <ele>495</ele>
        <time>2015-04-19T10:19:29Z</time>
      </trkpt>
      <trkpt lat="49.99204" lon="5.61096">
        <ele>495</ele>
        <time>2015-04-19T10:19:34Z</time>
      </trkpt>
      <trkpt lat="49.99204" lon="5.61087">
        <ele>495</ele>
        <time>2015-04-19T10:19:39Z</time>
      </trkpt>
      <trkpt lat="49.99204" lon="5.61083">
        <ele>496</ele>
        <time>2015-04-19T10:19:45Z</time>
      </trkpt>
      <trkpt lat="49.99205" lon="5.61076">
        <ele>496</ele>
        <time>2015-04-19T10:19:50Z</time>
      </trkpt>
      <trkpt lat="49.99205" lon="5.6107">
        <ele>496</ele>
        <time>2015-04-19T10:19:56Z</time>
      </trkpt>
      <trkpt lat="49.99205" lon="5.61068">
        <ele>496</ele>
        <time>2015-04-19T10:20:01Z</time>
      </trkpt>
      <trkpt lat="49.99206" lon="5.61063">
        <ele>496</ele>
        <time>2015-04-19T10:20:07Z</time>
      </trkpt>
      <trkpt lat="49.99206" lon="5.61055">
        <ele>495</ele>
        <time>2015-04-19T10:20:13Z</time>
      </trkpt>
      <trkpt lat="49.99207" lon="5.61049">
        <ele>495</ele>
        <time>2015-04-19T10:20:18Z</time>
      </trkpt>
      <trkpt lat="49.99206" lon="5.61047">
        <ele>496</ele>
        <time>2015-04-19T10:20:23Z</time>
      </trkpt>
      <trkpt lat="49.99206" lon="5.61047">
        <ele>496</ele>
        <time>2015-04-19T10:20:30Z</time>
      </trkpt>
      <trkpt lat="49.99206" lon="5.61046">
        <ele>496</ele>
        <time>2015-04-19T10:20:38Z</time>
      </trkpt>
      <trkpt lat="49.99205" lon="5.61046">
        <ele>496</ele>
        <time>2015-04-19T10:20:44Z</time>
      </trkpt>
      <trkpt lat="49.99205" lon="5.61046">
        <ele>496</ele>
        <time>2015-04-19T10:20:52Z</time>
      </trkpt>
      <trkpt lat="49.99206" lon="5.61046">
        <ele>496</ele>
        <time>2015-04-19T10:20:57Z</time>
      </trkpt>
      <trkpt lat="49.99206" lon="5.61046">
        <ele>496</ele>
        <time>2015-04-19T10:21:03Z</time>
      </trkpt>
      <trkpt lat="49.99206" lon="5.61046">
        <ele>496</ele>
        <time>2015-04-19T10:21:08Z</time>
      </trkpt>
      <trkpt lat="49.99205" lon="5.61045">
        <ele>497</ele>
        <time>2015-04-19T10:21:14Z</time>
      </trkpt>
      <trkpt lat="49.99205" lon="5.61045">
        <ele>496</ele>
        <time>2015-04-19T10:21:20Z</time>
      </trkpt>
      <trkpt lat="49.99207" lon="5.61042">
        <ele>496</ele>
        <time>2015-04-19T10:21:25Z</time>
      </trkpt>
      <trkpt lat="49.99208" lon="5.61042">
        <ele>496</ele>
        <time>2015-04-19T10:21:31Z</time>
      </trkpt>
      <trkpt lat="49.99208" lon="5.61042">
        <ele>497</ele>
        <time>2015-04-19T10:21:37Z</time>
      </trkpt>
      <trkpt lat="49.99208" lon="5.6104">
        <ele>497</ele>
        <time>2015-04-19T10:21:43Z</time>
      </trkpt>
      <trkpt lat="49.99209" lon="5.61039">
        <ele>497</ele>
        <time>2015-04-19T10:21:48Z</time>
      </trkpt>
      <trkpt lat="49.99209" lon="5.61033">
        <ele>497</ele>
        <time>2015-04-19T10:21:53Z</time>
      </trkpt>
      <trkpt lat="49.9921" lon="5.61025">
        <ele>496</ele>
        <time>2015-04-19T10:21:58Z</time>
      </trkpt>
      <trkpt lat="49.99209" lon="5.61017">
        <ele>496</ele>
        <time>2015-04-19T10:22:04Z</time>
      </trkpt>
      <trkpt lat="49.99209" lon="5.61008">
        <ele>495</ele>
        <time>2015-04-19T10:22:10Z</time>
      </trkpt>
      <trkpt lat="49.99209" lon="5.61001">
        <ele>495</ele>
        <time>2015-04-19T10:22:16Z</time>
      </trkpt>
      <trkpt lat="49.99208" lon="5.60992">
        <ele>495</ele>
        <time>2015-04-19T10:22:21Z</time>
      </trkpt>
      <trkpt lat="49.99207" lon="5.60983">
        <ele>495</ele>
        <time>2015-04-19T10:22:26Z</time>
      </trkpt>
      <trkpt lat="49.99207" lon="5.60972">
        <ele>495</ele>
        <time>2015-04-19T10:22:32Z</time>
      </trkpt>
      <trkpt lat="49.99206" lon="5.60962">
        <ele>495</ele>
        <time>2015-04-19T10:22:37Z</time>
      </trkpt>
      <trkpt lat="49.99206" lon="5.60954">
        <ele>494</ele>
        <time>2015-04-19T10:22:42Z</time>
      </trkpt>
      <trkpt lat="49.99205" lon="5.60943">
        <ele>494</ele>
        <time>2015-04-19T10:22:48Z</time>
      </trkpt>
      <trkpt lat="49.99204" lon="5.60933">
        <ele>494</ele>
        <time>2015-04-19T10:22:54Z</time>
      </trkpt>
      <trkpt lat="49.99203" lon="5.60923">
        <ele>493</ele>
        <time>2015-04-19T10:23:00Z</time>
      </trkpt>
      <trkpt lat="49.99202" lon="5.60913">
        <ele>493</ele>
        <time>2015-04-19T10:23:06Z</time>
      </trkpt>
      <trkpt lat="49.99202" lon="5.60904">
        <ele>492</ele>
        <time>2015-04-19T10:23:11Z</time>
      </trkpt>
      <trkpt lat="49.99201" lon="5.60894">
        <ele>492</ele>
        <time>2015-04-19T10:23:16Z</time>
      </trkpt>
      <trkpt lat="49.992" lon="5.60883">
        <ele>492</ele>
        <time>2015-04-19T10:23:22Z</time>
      </trkpt>
      <trkpt lat="49.992" lon="5.60874">
        <ele>491</ele>
        <time>2015-04-19T10:23:28Z</time>
      </trkpt>
      <trkpt lat="49.99199" lon="5.60863">
        <ele>490</ele>
        <time>2015-04-19T10:23:33Z</time>
      </trkpt>
      <trkpt lat="49.99199" lon="5.60854">
        <ele>490</ele>
        <time>2015-04-19T10:23:38Z</time>
      </trkpt>
      <trkpt lat="49.99198" lon="5.60845">
        <ele>490</ele>
        <time>2015-04-19T10:23:43Z</time>
      </trkpt>
      <trkpt lat="49.99197" lon="5.60835">
        <ele>490</ele>
        <time>2015-04-19T10:23:49Z</time>
      </trkpt>
      <trkpt lat="49.99197" lon="5.60826">
        <ele>489</ele>
        <time>2015-04-19T10:23:54Z</time>
      </trkpt>
      <trkpt lat="49.99196" lon="5.60815">
        <ele>489</ele>
        <time>2015-04-19T10:24:00Z</time>
      </trkpt>
      <trkpt lat="49.99195" lon="5.60805">
        <ele>489</ele>
        <time>2015-04-19T10:24:05Z</time>
      </trkpt>
      <trkpt lat="49.99195" lon="5.60795">
        <ele>488</ele>
        <time>2015-04-19T10:24:11Z</time>
      </trkpt>
      <trkpt lat="49.99194" lon="5.60782">
        <ele>488</ele>
        <time>2015-04-19T10:24:16Z</time>
      </trkpt>
      <trkpt lat="49.99193" lon="5.60772">
        <ele>488</ele>
        <time>2015-04-19T10:24:21Z</time>
      </trkpt>
      <trkpt lat="49.99192" lon="5.60761">
        <ele>487</ele>
        <time>2015-04-19T10:24:26Z</time>
      </trkpt>
      <trkpt lat="49.99191" lon="5.60751">
        <ele>487</ele>
        <time>2015-04-19T10:24:31Z</time>
      </trkpt>
      <trkpt lat="49.99189" lon="5.60741">
        <ele>486</ele>
        <time>2015-04-19T10:24:36Z</time>
      </trkpt>
      <trkpt lat="49.99188" lon="5.60732">
        <ele>485</ele>
        <time>2015-04-19T10:24:42Z</time>
      </trkpt>
      <trkpt lat="49.99187" lon="5.60721">
        <ele>485</ele>
        <time>2015-04-19T10:24:47Z</time>
      </trkpt>
      <trkpt lat="49.99186" lon="5.6071">
        <ele>483</ele>
        <time>2015-04-19T10:24:53Z</time>
      </trkpt>
      <trkpt lat="49.99185" lon="5.607">
        <ele>483</ele>
        <time>2015-04-19T10:24:58Z</time>
      </trkpt>
      <trkpt lat="49.99184" lon="5.60689">
        <ele>483</ele>
        <time>2015-04-19T10:25:04Z</time>
      </trkpt>
      <trkpt lat="49.99183" lon="5.6068">
        <ele>483</ele>
        <time>2015-04-19T10:25:10Z</time>
      </trkpt>
      <trkpt lat="49.99181" lon="5.60668">
        <ele>483</ele>
        <time>2015-04-19T10:25:15Z</time>
      </trkpt>
      <trkpt lat="49.9918" lon="5.60658">
        <ele>483</ele>
        <time>2015-04-19T10:25:20Z</time>
      </trkpt>
      <trkpt lat="49.99179" lon="5.60646">
        <ele>482</ele>
        <time>2015-04-19T10:25:26Z</time>
      </trkpt>
      <trkpt lat="49.99178" lon="5.60636">
        <ele>482</ele>
        <time>2015-04-19T10:25:32Z</time>
      </trkpt>
      <trkpt lat="49.99177" lon="5.60626">
        <ele>482</ele>
        <time>2015-04-19T10:25:38Z</time>
      </trkpt>
      <trkpt lat="49.99175" lon="5.60615">
        <ele>481</ele>
        <time>2015-04-19T10:25:43Z</time>
      </trkpt>
      <trkpt lat="49.99174" lon="5.60606">
        <ele>481</ele>
        <time>2015-04-19T10:25:48Z</time>
      </trkpt>
      <trkpt lat="49.99173" lon="5.60597">
        <ele>480</ele>
        <time>2015-04-19T10:25:54Z</time>
      </trkpt>
      <trkpt lat="49.99173" lon="5.6059">
        <ele>480</ele>
        <time>2015-04-19T10:25:59Z</time>
      </trkpt>
      <trkpt lat="49.99171" lon="5.60581">
        <ele>480</ele>
        <time>2015-04-19T10:26:04Z</time>
      </trkpt>
      <trkpt lat="49.9917" lon="5.6057">
        <ele>479</ele>
        <time>2015-04-19T10:26:10Z</time>
      </trkpt>
      <trkpt lat="49.99169" lon="5.6056">
        <ele>479</ele>
        <time>2015-04-19T10:26:16Z</time>
      </trkpt>
      <trkpt lat="49.99168" lon="5.60548">
        <ele>479</ele>
        <time>2015-04-19T10:26:22Z</time>
      </trkpt>
      <trkpt lat="49.99167" lon="5.60539">
        <ele>479</ele>
        <time>2015-04-19T10:26:27Z</time>
      </trkpt>
      <trkpt lat="49.99165" lon="5.60528">
        <ele>479</ele>
        <time>2015-04-19T10:26:33Z</time>
      </trkpt>
      <trkpt lat="49.99164" lon="5.60519">
        <ele>478</ele>
        <time>2015-04-19T10:26:38Z</time>
      </trkpt>
      <trkpt lat="49.99162" lon="5.60509">
        <ele>478</ele>
        <time>2015-04-19T10:26:43Z</time>
      </trkpt>
      <trkpt lat="49.9916" lon="5.60499">
        <ele>478</ele>
        <time>2015-04-19T10:26:49Z</time>
      </trkpt>
      <trkpt lat="49.99157" lon="5.60488">
        <ele>478</ele>
        <time>2015-04-19T10:26:54Z</time>
      </trkpt>
      <trkpt lat="49.99155" lon="5.60479">
        <ele>477</ele>
        <time>2015-04-19T10:26:59Z</time>
      </trkpt>
      <trkpt lat="49.99155" lon="5.60477">
        <ele>478</ele>
        <time>2015-04-19T10:27:05Z</time>
      </trkpt>
      <trkpt lat="49.99155" lon="5.60476">
        <ele>478</ele>
        <time>2015-04-19T10:27:12Z</time>
      </trkpt>
      <trkpt lat="49.99155" lon="5.60476">
        <ele>478</ele>
        <time>2015-04-19T10:27:18Z</time>
      </trkpt>
      <trkpt lat="49.99154" lon="5.60471">
        <ele>478</ele>
        <time>2015-04-19T10:27:23Z</time>
      </trkpt>
      <trkpt lat="49.99152" lon="5.60463">
        <ele>477</ele>
        <time>2015-04-19T10:27:29Z</time>
      </trkpt>
      <trkpt lat="49.99149" lon="5.60452">
        <ele>477</ele>
        <time>2015-04-19T10:27:35Z</time>
      </trkpt>
      <trkpt lat="49.99146" lon="5.60444">
        <ele>477</ele>
        <time>2015-04-19T10:27:40Z</time>
      </trkpt>
      <trkpt lat="49.99142" lon="5.60434">
        <ele>476</ele>
        <time>2015-04-19T10:27:46Z</time>
      </trkpt>
      <trkpt lat="49.99138" lon="5.60426">
        <ele>476</ele>
        <time>2015-04-19T10:27:51Z</time>
      </trkpt>
      <trkpt lat="49.99135" lon="5.60419">
        <ele>476</ele>
        <time>2015-04-19T10:27:56Z</time>
      </trkpt>
      <trkpt lat="49.99134" lon="5.60416">
        <ele>476</ele>
        <time>2015-04-19T10:28:01Z</time>
      </trkpt>
      <trkpt lat="49.99134" lon="5.60416">
        <ele>476</ele>
        <time>2015-04-19T10:28:07Z</time>
      </trkpt>
      <trkpt lat="49.99133" lon="5.60415">
        <ele>476</ele>
        <time>2015-04-19T10:28:12Z</time>
      </trkpt>
      <trkpt lat="49.99133" lon="5.60415">
        <ele>476</ele>
        <time>2015-04-19T10:28:18Z</time>
      </trkpt>
      <trkpt lat="49.99132" lon="5.60412">
        <ele>476</ele>
        <time>2015-04-19T10:28:23Z</time>
      </trkpt>
      <trkpt lat="49.99129" lon="5.60405">
        <ele>476</ele>
        <time>2015-04-19T10:28:28Z</time>
      </trkpt>
      <trkpt lat="49.99126" lon="5.60398">
        <ele>476</ele>
        <time>2015-04-19T10:28:33Z</time>
      </trkpt>
      <trkpt lat="49.99123" lon="5.60389">
        <ele>476</ele>
        <time>2015-04-19T10:28:39Z</time>
      </trkpt>
      <trkpt lat="49.99119" lon="5.6038">
        <ele>476</ele>
        <time>2015-04-19T10:28:45Z</time>
      </trkpt>
      <trkpt lat="49.99115" lon="5.60373">
        <ele>476</ele>
        <time>2015-04-19T10:28:50Z</time>
      </trkpt>
      <trkpt lat="49.99112" lon="5.60365">
        <ele>475</ele>
        <time>2015-04-19T10:28:56Z</time>
      </trkpt>
      <trkpt lat="49.99109" lon="5.60357">
        <ele>475</ele>
        <time>2015-04-19T10:29:01Z</time>
      </trkpt>
      <trkpt lat="49.99105" lon="5.60348">
        <ele>475</ele>
        <time>2015-04-19T10:29:06Z</time>
      </trkpt>
      <trkpt lat="49.99101" lon="5.60341">
        <ele>475</ele>
        <time>2015-04-19T10:29:12Z</time>
      </trkpt>
      <trkpt lat="49.99098" lon="5.60333">
        <ele>474</ele>
        <time>2015-04-19T10:29:17Z</time>
      </trkpt>
      <trkpt lat="49.99094" lon="5.60324">
        <ele>474</ele>
        <time>2015-04-19T10:29:23Z</time>
      </trkpt>
      <trkpt lat="49.9909" lon="5.60315">
        <ele>474</ele>
        <time>2015-04-19T10:29:29Z</time>
      </trkpt>
      <trkpt lat="49.99086" lon="5.60306">
        <ele>474</ele>
        <time>2015-04-19T10:29:35Z</time>
      </trkpt>
      <trkpt lat="49.99083" lon="5.60298">
        <ele>474</ele>
        <time>2015-04-19T10:29:40Z</time>
      </trkpt>
      <trkpt lat="49.99078" lon="5.60288">
        <ele>473</ele>
        <time>2015-04-19T10:29:46Z</time>
      </trkpt>
      <trkpt lat="49.99074" lon="5.60279">
        <ele>473</ele>
        <time>2015-04-19T10:29:52Z</time>
      </trkpt>
      <trkpt lat="49.9907" lon="5.60269">
        <ele>473</ele>
        <time>2015-04-19T10:29:58Z</time>
      </trkpt>
      <trkpt lat="49.99066" lon="5.60259">
        <ele>473</ele>
        <time>2015-04-19T10:30:04Z</time>
      </trkpt>
      <trkpt lat="49.99063" lon="5.60252">
        <ele>473</ele>
        <time>2015-04-19T10:30:09Z</time>
      </trkpt>
      <trkpt lat="49.99059" lon="5.60243">
        <ele>473</ele>
        <time>2015-04-19T10:30:15Z</time>
      </trkpt>
      <trkpt lat="49.99055" lon="5.60233">
        <ele>472</ele>
        <time>2015-04-19T10:30:21Z</time>
      </trkpt>
      <trkpt lat="49.99052" lon="5.60225">
        <ele>472</ele>
        <time>2015-04-19T10:30:26Z</time>
      </trkpt>
      <trkpt lat="49.99047" lon="5.60215">
        <ele>471</ele>
        <time>2015-04-19T10:30:32Z</time>
      </trkpt>
      <trkpt lat="49.99044" lon="5.60206">
        <ele>472</ele>
        <time>2015-04-19T10:30:38Z</time>
      </trkpt>
      <trkpt lat="49.9904" lon="5.60198">
        <ele>471</ele>
        <time>2015-04-19T10:30:43Z</time>
      </trkpt>
      <trkpt lat="49.99036" lon="5.60189">
        <ele>470</ele>
        <time>2015-04-19T10:30:49Z</time>
      </trkpt>
      <trkpt lat="49.99033" lon="5.60181">
        <ele>471</ele>
        <time>2015-04-19T10:30:54Z</time>
      </trkpt>
      <trkpt lat="49.9903" lon="5.60173">
        <ele>471</ele>
        <time>2015-04-19T10:30:59Z</time>
      </trkpt>
      <trkpt lat="49.99027" lon="5.60163">
        <ele>471</ele>
        <time>2015-04-19T10:31:05Z</time>
      </trkpt>
      <trkpt lat="49.99023" lon="5.60153">
        <ele>470</ele>
        <time>2015-04-19T10:31:11Z</time>
      </trkpt>
      <trkpt lat="49.9902" lon="5.60143">
        <ele>470</ele>
        <time>2015-04-19T10:31:17Z</time>
      </trkpt>
      <trkpt lat="49.99017" lon="5.60135">
        <ele>470</ele>
        <time>2015-04-19T10:31:22Z</time>
      </trkpt>
      <trkpt lat="49.99014" lon="5.60128">
        <ele>470</ele>
        <time>2015-04-19T10:31:27Z</time>
      </trkpt>
      <trkpt lat="49.99012" lon="5.6012">
        <ele>470</ele>
        <time>2015-04-19T10:31:33Z</time>
      </trkpt>
      <trkpt lat="49.9901" lon="5.6011">
        <ele>470</ele>
        <time>2015-04-19T10:31:38Z</time>
      </trkpt>
      <trkpt lat="49.99007" lon="5.601">
        <ele>470</ele>
        <time>2015-04-19T10:31:44Z</time>
      </trkpt>
      <trkpt lat="49.99004" lon="5.6009">
        <ele>470</ele>
        <time>2015-04-19T10:31:50Z</time>
      </trkpt>
      <trkpt lat="49.99001" lon="5.60079">
        <ele>469</ele>
        <time>2015-04-19T10:31:56Z</time>
      </trkpt>
      <trkpt lat="49.98999" lon="5.60071">
        <ele>469</ele>
        <time>2015-04-19T10:32:02Z</time>
      </trkpt>
      <trkpt lat="49.98996" lon="5.60061">
        <ele>469</ele>
        <time>2015-04-19T10:32:07Z</time>
      </trkpt>
      <trkpt lat="49.98994" lon="5.60054">
        <ele>468</ele>
        <time>2015-04-19T10:32:13Z</time>
      </trkpt>
      <trkpt lat="49.98993" lon="5.60045">
        <ele>468</ele>
        <time>2015-04-19T10:32:19Z</time>
      </trkpt>
      <trkpt lat="49.98991" lon="5.60035">
        <ele>468</ele>
        <time>2015-04-19T10:32:24Z</time>
      </trkpt>
      <trkpt lat="49.9899" lon="5.60025">
        <ele>467</ele>
        <time>2015-04-19T10:32:30Z</time>
      </trkpt>
      <trkpt lat="49.98988" lon="5.60017">
        <ele>467</ele>
        <time>2015-04-19T10:32:35Z</time>
      </trkpt>
      <trkpt lat="49.98986" lon="5.60007">
        <ele>467</ele>
        <time>2015-04-19T10:32:41Z</time>
      </trkpt>
      <trkpt lat="49.98985" lon="5.59997">
        <ele>467</ele>
        <time>2015-04-19T10:32:47Z</time>
      </trkpt>
      <trkpt lat="49.98983" lon="5.59989">
        <ele>467</ele>
        <time>2015-04-19T10:32:52Z</time>
      </trkpt>
      <trkpt lat="49.9898" lon="5.59978">
        <ele>466</ele>
        <time>2015-04-19T10:32:58Z</time>
      </trkpt>
      <trkpt lat="49.98978" lon="5.59966">
        <ele>466</ele>
        <time>2015-04-19T10:33:04Z</time>
      </trkpt>
      <trkpt lat="49.98976" lon="5.59956">
        <ele>466</ele>
        <time>2015-04-19T10:33:10Z</time>
      </trkpt>
      <trkpt lat="49.98975" lon="5.59947">
        <ele>466</ele>
        <time>2015-04-19T10:33:16Z</time>
      </trkpt>
      <trkpt lat="49.98973" lon="5.59939">
        <ele>465</ele>
        <time>2015-04-19T10:33:22Z</time>
      </trkpt>
      <trkpt lat="49.98971" lon="5.59929">
        <ele>465</ele>
        <time>2015-04-19T10:33:28Z</time>
      </trkpt>
      <trkpt lat="49.9897" lon="5.59921">
        <ele>465</ele>
        <time>2015-04-19T10:33:33Z</time>
      </trkpt>
      <trkpt lat="49.98968" lon="5.59913">
        <ele>465</ele>
        <time>2015-04-19T10:33:39Z</time>
      </trkpt>
      <trkpt lat="49.98966" lon="5.59908">
        <ele>465</ele>
        <time>2015-04-19T10:33:45Z</time>
      </trkpt>
      <trkpt lat="49.98963" lon="5.59897">
        <ele>464</ele>
        <time>2015-04-19T10:33:51Z</time>
      </trkpt>
      <trkpt lat="49.98959" lon="5.59885">
        <ele>464</ele>
        <time>2015-04-19T10:33:57Z</time>
      </trkpt>
      <trkpt lat="49.98956" lon="5.59875">
        <ele>464</ele>
        <time>2015-04-19T10:34:03Z</time>
      </trkpt>
      <trkpt lat="49.98952" lon="5.59864">
        <ele>463</ele>
        <time>2015-04-19T10:34:09Z</time>
      </trkpt>
      <trkpt lat="49.98948" lon="5.59854">
        <ele>463</ele>
        <time>2015-04-19T10:34:15Z</time>
      </trkpt>
      <trkpt lat="49.98944" lon="5.59844">
        <ele>463</ele>
        <time>2015-04-19T10:34:21Z</time>
      </trkpt>
      <trkpt lat="49.98939" lon="5.59836">
        <ele>463</ele>
        <time>2015-04-19T10:34:27Z</time>
      </trkpt>
      <trkpt lat="49.98935" lon="5.59828">
        <ele>462</ele>
        <time>2015-04-19T10:34:33Z</time>
      </trkpt>
      <trkpt lat="49.9893" lon="5.5982">
        <ele>462</ele>
        <time>2015-04-19T10:34:39Z</time>
      </trkpt>
      <trkpt lat="49.98925" lon="5.59812">
        <ele>462</ele>
        <time>2015-04-19T10:34:45Z</time>
      </trkpt>
      <trkpt lat="49.98921" lon="5.59805">
        <ele>462</ele>
        <time>2015-04-19T10:34:50Z</time>
      </trkpt>
      <trkpt lat="49.98916" lon="5.59797">
        <ele>461</ele>
        <time>2015-04-19T10:34:56Z</time>
      </trkpt>
      <trkpt lat="49.98911" lon="5.59789">
        <ele>461</ele>
        <time>2015-04-19T10:35:02Z</time>
      </trkpt>
      <trkpt lat="49.98906" lon="5.59781">
        <ele>461</ele>
        <time>2015-04-19T10:35:08Z</time>
      </trkpt>
      <trkpt lat="49.98902" lon="5.59774">
        <ele>460</ele>
        <time>2015-04-19T10:35:13Z</time>
      </trkpt>
      <trkpt lat="49.98901" lon="5.59773">
        <ele>460</ele>
        <time>2015-04-19T10:35:19Z</time>
      </trkpt>
      <trkpt lat="49.989" lon="5.59773">
        <ele>461</ele>
        <time>2015-04-19T10:35:24Z</time>
      </trkpt>
      <trkpt lat="49.98897" lon="5.59768">
        <ele>460</ele>
        <time>2015-04-19T10:35:31Z</time>
      </trkpt>
      <trkpt lat="49.98895" lon="5.59765">
        <ele>460</ele>
        <time>2015-04-19T10:35:36Z</time>
      </trkpt>
      <trkpt lat="49.98891" lon="5.59762">
        <ele>460</ele>
        <time>2015-04-19T10:35:41Z</time>
      </trkpt>
      <trkpt lat="49.98888" lon="5.59757">
        <ele>460</ele>
        <time>2015-04-19T10:35:46Z</time>
      </trkpt>
      <trkpt lat="49.98883" lon="5.59752">
        <ele>459</ele>
        <time>2015-04-19T10:35:52Z</time>
      </trkpt>
      <trkpt lat="49.98878" lon="5.59746">
        <ele>459</ele>
        <time>2015-04-19T10:35:57Z</time>
      </trkpt>
      <trkpt lat="49.98871" lon="5.59741">
        <ele>459</ele>
        <time>2015-04-19T10:36:03Z</time>
      </trkpt>
      <trkpt lat="49.98866" lon="5.59737">
        <ele>459</ele>
        <time>2015-04-19T10:36:08Z</time>
      </trkpt>
      <trkpt lat="49.98864" lon="5.59735">
        <ele>458</ele>
        <time>2015-04-19T10:36:13Z</time>
      </trkpt>
      <trkpt lat="49.98861" lon="5.59733">
        <ele>459</ele>
        <time>2015-04-19T10:36:19Z</time>
      </trkpt>
      <trkpt lat="49.98853" lon="5.59729">
        <ele>458</ele>
        <time>2015-04-19T10:36:25Z</time>
      </trkpt>
      <trkpt lat="49.98847" lon="5.59725">
        <ele>458</ele>
        <time>2015-04-19T10:36:31Z</time>
      </trkpt>
      <trkpt lat="49.9884" lon="5.59721">
        <ele>458</ele>
        <time>2015-04-19T10:36:37Z</time>
      </trkpt>
      <trkpt lat="49.98835" lon="5.59717">
        <ele>457</ele>
        <time>2015-04-19T10:36:42Z</time>
      </trkpt>
      <trkpt lat="49.98828" lon="5.59713">
        <ele>457</ele>
        <time>2015-04-19T10:36:48Z</time>
      </trkpt>
      <trkpt lat="49.98822" lon="5.5971">
        <ele>457</ele>
        <time>2015-04-19T10:36:54Z</time>
      </trkpt>
      <trkpt lat="49.98815" lon="5.59707">
        <ele>457</ele>
        <time>2015-04-19T10:37:00Z</time>
      </trkpt>
      <trkpt lat="49.98809" lon="5.59704">
        <ele>456</ele>
        <time>2015-04-19T10:37:06Z</time>
      </trkpt>
      <trkpt lat="49.98803" lon="5.59702">
        <ele>456</ele>
        <time>2015-04-19T10:37:11Z</time>
      </trkpt>
      <trkpt lat="49.98797" lon="5.59698">
        <ele>456</ele>
        <time>2015-04-19T10:37:17Z</time>
      </trkpt>
      <trkpt lat="49.98792" lon="5.59696">
        <ele>456</ele>
        <time>2015-04-19T10:37:22Z</time>
      </trkpt>
      <trkpt lat="49.98784" lon="5.59693">
        <ele>456</ele>
        <time>2015-04-19T10:37:28Z</time>
      </trkpt>
      <trkpt lat="49.98778" lon="5.59688">
        <ele>455</ele>
        <time>2015-04-19T10:37:34Z</time>
      </trkpt>
      <trkpt lat="49.98772" lon="5.59684">
        <ele>455</ele>
        <time>2015-04-19T10:37:40Z</time>
      </trkpt>
      <trkpt lat="49.98766" lon="5.5968">
        <ele>455</ele>
        <time>2015-04-19T10:37:45Z</time>
      </trkpt>
      <trkpt lat="49.98762" lon="5.59676">
        <ele>455</ele>
        <time>2015-04-19T10:37:50Z</time>
      </trkpt>
      <trkpt lat="49.98758" lon="5.59671">
        <ele>455</ele>
        <time>2015-04-19T10:37:55Z</time>
      </trkpt>
      <trkpt lat="49.98753" lon="5.59664">
        <ele>454</ele>
        <time>2015-04-19T10:38:01Z</time>
      </trkpt>
      <trkpt lat="49.98749" lon="5.59656">
        <ele>454</ele>
        <time>2015-04-19T10:38:07Z</time>
      </trkpt>
      <trkpt lat="49.98745" lon="5.59649">
        <ele>454</ele>
        <time>2015-04-19T10:38:12Z</time>
      </trkpt>
      <trkpt lat="49.9874" lon="5.5964">
        <ele>454</ele>
        <time>2015-04-19T10:38:18Z</time>
      </trkpt>
      <trkpt lat="49.98737" lon="5.59632">
        <ele>453</ele>
        <time>2015-04-19T10:38:23Z</time>
      </trkpt>
      <trkpt lat="49.98732" lon="5.59624">
        <ele>452</ele>
        <time>2015-04-19T10:38:29Z</time>
      </trkpt>
      <trkpt lat="49.98728" lon="5.59615">
        <ele>452</ele>
        <time>2015-04-19T10:38:35Z</time>
      </trkpt>
      <trkpt lat="49.98724" lon="5.59608">
        <ele>452</ele>
        <time>2015-04-19T10:38:40Z</time>
      </trkpt>
      <trkpt lat="49.9872" lon="5.59599">
        <ele>452</ele>
        <time>2015-04-19T10:38:46Z</time>
      </trkpt>
      <trkpt lat="49.98716" lon="5.59592">
        <ele>452</ele>
        <time>2015-04-19T10:38:51Z</time>
      </trkpt>
      <trkpt lat="49.98712" lon="5.59583">
        <ele>451</ele>
        <time>2015-04-19T10:38:57Z</time>
      </trkpt>
      <trkpt lat="49.98709" lon="5.59576">
        <ele>450</ele>
        <time>2015-04-19T10:39:02Z</time>
      </trkpt>
      <trkpt lat="49.98705" lon="5.59567">
        <ele>450</ele>
        <time>2015-04-19T10:39:08Z</time>
      </trkpt>
      <trkpt lat="49.98701" lon="5.5956">
        <ele>450</ele>
        <time>2015-04-19T10:39:13Z</time>
      </trkpt>
      <trkpt lat="49.98697" lon="5.59551">
        <ele>449</ele>
        <time>2015-04-19T10:39:18Z</time>
      </trkpt>
      <trkpt lat="49.98693" lon="5.59543">
        <ele>449</ele>
        <time>2015-04-19T10:39:24Z</time>
      </trkpt>
      <trkpt lat="49.98691" lon="5.59536">
        <ele>449</ele>
        <time>2015-04-19T10:39:29Z</time>
      </trkpt>
      <trkpt lat="49.98687" lon="5.59526">
        <ele>449</ele>
        <time>2015-04-19T10:39:34Z</time>
      </trkpt>
      <trkpt lat="49.98682" lon="5.59517">
        <ele>448</ele>
        <time>2015-04-19T10:39:39Z</time>
      </trkpt>
      <trkpt lat="49.98677" lon="5.59508">
        <ele>448</ele>
        <time>2015-04-19T10:39:44Z</time>
      </trkpt>
      <trkpt lat="49.98671" lon="5.59499">
        <ele>448</ele>
        <time>2015-04-19T10:39:50Z</time>
      </trkpt>
      <trkpt lat="49.98667" lon="5.59491">
        <ele>447</ele>
        <time>2015-04-19T10:39:55Z</time>
      </trkpt>
      <trkpt lat="49.98662" lon="5.59483">
        <ele>447</ele>
        <time>2015-04-19T10:40:01Z</time>
      </trkpt>
      <trkpt lat="49.98657" lon="5.59473">
        <ele>447</ele>
        <time>2015-04-19T10:40:07Z</time>
      </trkpt>
      <trkpt lat="49.98653" lon="5.59466">
        <ele>446</ele>
        <time>2015-04-19T10:40:12Z</time>
      </trkpt>
      <trkpt lat="49.98648" lon="5.59457">
        <ele>446</ele>
        <time>2015-04-19T10:40:18Z</time>
      </trkpt>
      <trkpt lat="49.98644" lon="5.59448">
        <ele>446</ele>
        <time>2015-04-19T10:40:24Z</time>
      </trkpt>
      <trkpt lat="49.98638" lon="5.59441">
        <ele>445</ele>
        <time>2015-04-19T10:40:30Z</time>
      </trkpt>
      <trkpt lat="49.98632" lon="5.59437">
        <ele>445</ele>
        <time>2015-04-19T10:40:35Z</time>
      </trkpt>
      <trkpt lat="49.9863" lon="5.59437">
        <ele>445</ele>
        <time>2015-04-19T10:40:40Z</time>
      </trkpt>
      <trkpt lat="49.98629" lon="5.59438">
        <ele>445</ele>
        <time>2015-04-19T10:40:46Z</time>
      </trkpt>
      <trkpt lat="49.98627" lon="5.59439">
        <ele>444</ele>
        <time>2015-04-19T10:40:52Z</time>
      </trkpt>
      <trkpt lat="49.98627" lon="5.5944">
        <ele>444</ele>
        <time>2015-04-19T10:40:57Z</time>
      </trkpt>
      <trkpt lat="49.98627" lon="5.59442">
        <ele>444</ele>
        <time>2015-04-19T10:41:02Z</time>
      </trkpt>
      <trkpt lat="49.98626" lon="5.59444">
        <ele>445</ele>
        <time>2015-04-19T10:41:07Z</time>
      </trkpt>
      <trkpt lat="49.98626" lon="5.59445">
        <ele>445</ele>
        <time>2015-04-19T10:41:12Z</time>
      </trkpt>
      <trkpt lat="49.98625" lon="5.59447">
        <ele>445</ele>
        <time>2015-04-19T10:41:18Z</time>
      </trkpt>
      <trkpt lat="49.98625" lon="5.59449">
        <ele>445</ele>
        <time>2015-04-19T10:41:24Z</time>
      </trkpt>
      <trkpt lat="49.98624" lon="5.59451">
        <ele>445</ele>
        <time>2015-04-19T10:41:29Z</time>
      </trkpt>
      <trkpt lat="49.98624" lon="5.59449">
        <ele>445</ele>
        <time>2015-04-19T10:41:34Z</time>
      </trkpt>
      <trkpt lat="49.98624" lon="5.59446">
        <ele>445</ele>
        <time>2015-04-19T10:41:40Z</time>
      </trkpt>
      <trkpt lat="49.98625" lon="5.59444">
        <ele>445</ele>
        <time>2015-04-19T10:41:45Z</time>
      </trkpt>
      <trkpt lat="49.99172" lon="5.57354">
        <ele>439</ele>
        <time>2015-04-19T10:41:52Z</time>
      </trkpt>
      <trkpt lat="49.99175" lon="5.57358">
        <ele>439</ele>
        <time>2015-04-19T10:41:57Z</time>
      </trkpt>
      <trkpt lat="49.99179" lon="5.57363">
        <ele>439</ele>
        <time>2015-04-19T10:42:03Z</time>
      </trkpt>
      <trkpt lat="49.99186" lon="5.5737">
        <ele>439</ele>
        <time>2015-04-19T10:42:09Z</time>
      </trkpt>
      <trkpt lat="49.9919" lon="5.57377">
        <ele>438</ele>
        <time>2015-04-19T10:42:14Z</time>
      </trkpt>
      <trkpt lat="49.99194" lon="5.57382">
        <ele>438</ele>
        <time>2015-04-19T10:42:19Z</time>
      </trkpt>
      <trkpt lat="49.99197" lon="5.57387">
        <ele>438</ele>
        <time>2015-04-19T10:42:24Z</time>
      </trkpt>
      <trkpt lat="49.99202" lon="5.57392">
        <ele>438</ele>
        <time>2015-04-19T10:42:30Z</time>
      </trkpt>
      <trkpt lat="49.99207" lon="5.57397">
        <ele>437</ele>
        <time>2015-04-19T10:42:36Z</time>
      </trkpt>
      <trkpt lat="49.99212" lon="5.57402">
        <ele>437</ele>
        <time>2015-04-19T10:42:42Z</time>
      </trkpt>
      <trkpt lat="49.99217" lon="5.57405">
        <ele>437</ele>
        <time>2015-04-19T10:42:47Z</time>
      </trkpt>
      <trkpt lat="49.99223" lon="5.57408">
        <ele>437</ele>
        <time>2015-04-19T10:42:52Z</time>
      </trkpt>
      <trkpt lat="49.99228" lon="5.57412">
        <ele>436</ele>
        <time>2015-04-19T10:42:58Z</time>
      </trkpt>
      <trkpt lat="49.99232" lon="5.57415">
        <ele>436</ele>
        <time>2015-04-19T10:43:03Z</time>
      </trkpt>
      <trkpt lat="49.99237" lon="5.57418">
        <ele>435</ele>
        <time>2015-04-19T10:43:08Z</time>
      </trkpt>
      <trkpt lat="49.99239" lon="5.5742">
        <ele>435</ele>
        <time>2015-04-19T10:43:14Z</time>
      </trkpt>
      <trkpt lat="49.9924" lon="5.57421">
        <ele>436</ele>
        <time>2015-04-19T10:43:19Z</time>
      </trkpt>
      <trkpt lat="49.99242" lon="5.57422">
        <ele>437</ele>
        <time>2015-04-19T10:43:25Z</time>
      </trkpt>
      <trkpt lat="49.99244" lon="5.57421">
        <ele>437</ele>
        <time>2015-04-19T10:43:30Z</time>
      </trkpt>
      <trkpt lat="49.99247" lon="5.57421">
        <ele>437</ele>
        <time>2015-04-19T10:43:35Z</time>
      </trkpt>
      <trkpt lat="49.9925" lon="5.57421">
        <ele>437</ele>
        <time>2015-04-19T10:43:41Z</time>
      </trkpt>
      <trkpt lat="49.99252" lon="5.57421">
        <ele>436</ele>
        <time>2015-04-19T10:43:46Z</time>
      </trkpt>
      <trkpt lat="49.99254" lon="5.57422">
        <ele>436</ele>
        <time>2015-04-19T10:43:51Z</time>
      </trkpt>
      <trkpt lat="49.99255" lon="5.57424">
        <ele>436</ele>
        <time>2015-04-19T10:43:56Z</time>
      </trkpt>
      <trkpt lat="49.99255" lon="5.57425">
        <ele>436</ele>
        <time>2015-04-19T10:44:01Z</time>
      </trkpt>
      <trkpt lat="49.99255" lon="5.57427">
        <ele>436</ele>
        <time>2015-04-19T10:44:06Z</time>
      </trkpt>
      <trkpt lat="49.99254" lon="5.57429">
        <ele>436</ele>
        <time>2015-04-19T10:44:12Z</time>
      </trkpt>
      <trkpt lat="49.99253" lon="5.57432">
        <ele>436</ele>
        <time>2015-04-19T10:44:18Z</time>
      </trkpt>
      <trkpt lat="49.99253" lon="5.57431">
        <ele>436</ele>
        <time>2015-04-19T10:44:23Z</time>
      </trkpt>
      <trkpt lat="49.99252" lon="5.57432">
        <ele>436</ele>
        <time>2015-04-19T10:44:29Z</time>
      </trkpt>
      <trkpt lat="49.99252" lon="5.57433">
        <ele>436</ele>
        <time>2015-04-19T10:44:34Z</time>
      </trkpt>
      <trkpt lat="49.99249" lon="5.57434">
        <ele>436</ele>
        <time>2015-04-19T10:44:40Z</time>
      </trkpt>
      <trkpt lat="49.99247" lon="5.57437">
        <ele>436</ele>
        <time>2015-04-19T10:44:46Z</time>
      </trkpt>
      <trkpt lat="49.99245" lon="5.57439">
        <ele>437</ele>
        <time>2015-04-19T10:44:51Z</time>
      </trkpt>
      <trkpt lat="49.99247" lon="5.57439">
        <ele>437</ele>
        <time>2015-04-19T10:44:56Z</time>
      </trkpt>
      <trkpt lat="49.99249" lon="5.57438">
        <ele>436</ele>
        <time>2015-04-19T10:45:01Z</time>
      </trkpt>
      <trkpt lat="49.99251" lon="5.57436">
        <ele>436</ele>
        <time>2015-04-19T10:45:06Z</time>
      </trkpt>
      <trkpt lat="49.99253" lon="5.57434">
        <ele>436</ele>
        <time>2015-04-19T10:45:12Z</time>
      </trkpt>
      <trkpt lat="49.99254" lon="5.57434">
        <ele>436</ele>
        <time>2015-04-19T10:45:18Z</time>
      </trkpt>
      <trkpt lat="49.99254" lon="5.57434">
        <ele>436</ele>
        <time>2015-04-19T10:45:24Z</time>
      </trkpt>
      <trkpt lat="49.99255" lon="5.57434">
        <ele>436</ele>
        <time>2015-04-19T10:45:30Z</time>
      </trkpt>
      <trkpt lat="49.99255" lon="5.57435">
        <ele>435</ele>
        <time>2015-04-19T10:45:35Z</time>
      </trkpt>
      <trkpt lat="49.99256" lon="5.57435">
        <ele>435</ele>
        <time>2015-04-19T10:45:40Z</time>
      </trkpt>
      <trkpt lat="49.99255" lon="5.57436">
        <ele>436</ele>
        <time>2015-04-19T10:45:45Z</time>
      </trkpt>
      <trkpt lat="49.99254" lon="5.57436">
        <ele>436</ele>
        <time>2015-04-19T10:45:51Z</time>
      </trkpt>
      <trkpt lat="49.99254" lon="5.57436">
        <ele>435</ele>
        <time>2015-04-19T10:45:56Z</time>
      </trkpt>
      <trkpt lat="49.99253" lon="5.57437">
        <ele>436</ele>
        <time>2015-04-19T10:46:01Z</time>
      </trkpt>
      <trkpt lat="49.99252" lon="5.57436">
        <ele>435</ele>
        <time>2015-04-19T10:46:09Z</time>
      </trkpt>
      <trkpt lat="49.99252" lon="5.57436">
        <ele>435</ele>
        <time>2015-04-19T10:46:14Z</time>
      </trkpt>
      <trkpt lat="49.99252" lon="5.57434">
        <ele>436</ele>
        <time>2015-04-19T10:46:20Z</time>
      </trkpt>
      <trkpt lat="49.99252" lon="5.57433">
        <ele>436</ele>
        <time>2015-04-19T10:46:25Z</time>
      </trkpt>
      <trkpt lat="49.99253" lon="5.57434">
        <ele>436</ele>
        <time>2015-04-19T10:46:30Z</time>
      </trkpt>
      <trkpt lat="49.99256" lon="5.57434">
        <ele>436</ele>
        <time>2015-04-19T10:46:36Z</time>
      </trkpt>
      <trkpt lat="49.9926" lon="5.57436">
        <ele>437</ele>
        <time>2015-04-19T10:46:42Z</time>
      </trkpt>
      <trkpt lat="49.99264" lon="5.57438">
        <ele>436</ele>
        <time>2015-04-19T10:46:48Z</time>
      </trkpt>
      <trkpt lat="49.99267" lon="5.57439">
        <ele>436</ele>
        <time>2015-04-19T10:46:53Z</time>
      </trkpt>
      <trkpt lat="49.99271" lon="5.57442">
        <ele>436</ele>
        <time>2015-04-19T10:46:59Z</time>
      </trkpt>
      <trkpt lat="49.99274" lon="5.57442">
        <ele>435</ele>
        <time>2015-04-19T10:47:04Z</time>
      </trkpt>
      <trkpt lat="49.99278" lon="5.57446">
        <ele>435</ele>
        <time>2015-04-19T10:47:10Z</time>
      </trkpt>
      <trkpt lat="49.99282" lon="5.57448">
        <ele>435</ele>
        <time>2015-04-19T10:47:16Z</time>
      </trkpt>
      <trkpt lat="49.99287" lon="5.5745">
        <ele>435</ele>
        <time>2015-04-19T10:47:21Z</time>
      </trkpt>
      <trkpt lat="49.99292" lon="5.57453">
        <ele>435</ele>
        <time>2015-04-19T10:47:27Z</time>
      </trkpt>
      <trkpt lat="49.99297" lon="5.57457">
        <ele>434</ele>
        <time>2015-04-19T10:47:32Z</time>
      </trkpt>
      <trkpt lat="49.99303" lon="5.5746">
        <ele>434</ele>
        <time>2015-04-19T10:47:37Z</time>
      </trkpt>
      <trkpt lat="49.9931" lon="5.57463">
        <ele>434</ele>
        <time>2015-04-19T10:47:43Z</time>
      </trkpt>
      <trkpt lat="49.99315" lon="5.57465">
        <ele>434</ele>
        <time>2015-04-19T10:47:49Z</time>
      </trkpt>
      <trkpt lat="49.99319" lon="5.57469">
        <ele>434</ele>
        <time>2015-04-19T10:47:54Z</time>
      </trkpt>
      <trkpt lat="49.99325" lon="5.57472">
        <ele>433</ele>
        <time>2015-04-19T10:48:00Z</time>
      </trkpt>
      <trkpt lat="49.99331" lon="5.57476">
        <ele>432</ele>
        <time>2015-04-19T10:48:06Z</time>
      </trkpt>
      <trkpt lat="49.99337" lon="5.57479">
        <ele>432</ele>
        <time>2015-04-19T10:48:11Z</time>
      </trkpt>
      <trkpt lat="49.99343" lon="5.57483">
        <ele>432</ele>
        <time>2015-04-19T10:48:17Z</time>
      </trkpt>
      <trkpt lat="49.99349" lon="5.57488">
        <ele>432</ele>
        <time>2015-04-19T10:48:23Z</time>
      </trkpt>
      <trkpt lat="49.99355" lon="5.57492">
        <ele>432</ele>
        <time>2015-04-19T10:48:29Z</time>
      </trkpt>
      <trkpt lat="49.99361" lon="5.57496">
        <ele>432</ele>
        <time>2015-04-19T10:48:34Z</time>
      </trkpt>
      <trkpt lat="49.99367" lon="5.57502">
        <ele>432</ele>
        <time>2015-04-19T10:48:40Z</time>
      </trkpt>
      <trkpt lat="49.99372" lon="5.57508">
        <ele>431</ele>
        <time>2015-04-19T10:48:46Z</time>
      </trkpt>
      <trkpt lat="49.99378" lon="5.57514">
        <ele>430</ele>
        <time>2015-04-19T10:48:52Z</time>
      </trkpt>
      <trkpt lat="49.99382" lon="5.5752">
        <ele>430</ele>
        <time>2015-04-19T10:48:57Z</time>
      </trkpt>
      <trkpt lat="49.99386" lon="5.57526">
        <ele>430</ele>
        <time>2015-04-19T10:49:02Z</time>
      </trkpt>
      <trkpt lat="49.99391" lon="5.57533">
        <ele>430</ele>
        <time>2015-04-19T10:49:08Z</time>
      </trkpt>
      <trkpt lat="49.99394" lon="5.57537">
        <ele>430</ele>
        <time>2015-04-19T10:49:13Z</time>
      </trkpt>
      <trkpt lat="49.99398" lon="5.57543">
        <ele>430</ele>
        <time>2015-04-19T10:49:19Z</time>
      </trkpt>
      <trkpt lat="49.99403" lon="5.57551">
        <ele>429</ele>
        <time>2015-04-19T10:49:25Z</time>
      </trkpt>
      <trkpt lat="49.99408" lon="5.57559">
        <ele>429</ele>
        <time>2015-04-19T10:49:31Z</time>
      </trkpt>
      <trkpt lat="49.99412" lon="5.57567">
        <ele>429</ele>
        <time>2015-04-19T10:49:37Z</time>
      </trkpt>
      <trkpt lat="49.99415" lon="5.57573">
        <ele>429</ele>
        <time>2015-04-19T10:49:42Z</time>
      </trkpt>
      <trkpt lat="49.99419" lon="5.57579">
        <ele>428</ele>
        <time>2015-04-19T10:49:48Z</time>
      </trkpt>
      <trkpt lat="49.99421" lon="5.57585">
        <ele>429</ele>
        <time>2015-04-19T10:49:53Z</time>
      </trkpt>
      <trkpt lat="49.99424" lon="5.57589">
        <ele>428</ele>
        <time>2015-04-19T10:49:59Z</time>
      </trkpt>
      <trkpt lat="49.99426" lon="5.57594">
        <ele>428</ele>
        <time>2015-04-19T10:50:04Z</time>
      </trkpt>
      <trkpt lat="49.99429" lon="5.57603">
        <ele>428</ele>
        <time>2015-04-19T10:50:10Z</time>
      </trkpt>
      <trkpt lat="49.99431" lon="5.57609">
        <ele>428</ele>
        <time>2015-04-19T10:50:15Z</time>
      </trkpt>
      <trkpt lat="49.99433" lon="5.57615">
        <ele>428</ele>
        <time>2015-04-19T10:50:21Z</time>
      </trkpt>
      <trkpt lat="49.99435" lon="5.57622">
        <ele>428</ele>
        <time>2015-04-19T10:50:26Z</time>
      </trkpt>
      <trkpt lat="49.99437" lon="5.5763">
        <ele>428</ele>
        <time>2015-04-19T10:50:31Z</time>
      </trkpt>
      <trkpt lat="49.9944" lon="5.5764">
        <ele>428</ele>
        <time>2015-04-19T10:50:37Z</time>
      </trkpt>
      <trkpt lat="49.99443" lon="5.5765">
        <ele>428</ele>
        <time>2015-04-19T10:50:43Z</time>
      </trkpt>
      <trkpt lat="49.99445" lon="5.57657">
        <ele>429</ele>
        <time>2015-04-19T10:50:48Z</time>
      </trkpt>
      <trkpt lat="49.99447" lon="5.57666">
        <ele>428</ele>
        <time>2015-04-19T10:50:54Z</time>
      </trkpt>
      <trkpt lat="49.99448" lon="5.57676">
        <ele>428</ele>
        <time>2015-04-19T10:51:00Z</time>
      </trkpt>
      <trkpt lat="49.9945" lon="5.57687">
        <ele>428</ele>
        <time>2015-04-19T10:51:06Z</time>
      </trkpt>
      <trkpt lat="49.99451" lon="5.57697">
        <ele>428</ele>
        <time>2015-04-19T10:51:12Z</time>
      </trkpt>
      <trkpt lat="49.99452" lon="5.57706">
        <ele>428</ele>
        <time>2015-04-19T10:51:17Z</time>
      </trkpt>
      <trkpt lat="49.99453" lon="5.57714">
        <ele>428</ele>
        <time>2015-04-19T10:51:23Z</time>
      </trkpt>
      <trkpt lat="49.99454" lon="5.57721">
        <ele>429</ele>
        <time>2015-04-19T10:51:28Z</time>
      </trkpt>
      <trkpt lat="49.99454" lon="5.5773">
        <ele>428</ele>
        <time>2015-04-19T10:51:34Z</time>
      </trkpt>
      <trkpt lat="49.99454" lon="5.57738">
        <ele>428</ele>
        <time>2015-04-19T10:51:39Z</time>
      </trkpt>
      <trkpt lat="49.99453" lon="5.57748">
        <ele>428</ele>
        <time>2015-04-19T10:51:45Z</time>
      </trkpt>
      <trkpt lat="49.99452" lon="5.57758">
        <ele>427</ele>
        <time>2015-04-19T10:51:51Z</time>
      </trkpt>
      <trkpt lat="49.9945" lon="5.57765">
        <ele>427</ele>
        <time>2015-04-19T10:51:56Z</time>
      </trkpt>
      <trkpt lat="49.99449" lon="5.57775">
        <ele>427</ele>
        <time>2015-04-19T10:52:02Z</time>
      </trkpt>
      <trkpt lat="49.99448" lon="5.57784">
        <ele>427</ele>
        <time>2015-04-19T10:52:08Z</time>
      </trkpt>
      <trkpt lat="49.99448" lon="5.57792">
        <ele>428</ele>
        <time>2015-04-19T10:52:13Z</time>
      </trkpt>
      <trkpt lat="49.99447" lon="5.57799">
        <ele>429</ele>
        <time>2015-04-19T10:52:18Z</time>
      </trkpt>
      <trkpt lat="49.99446" lon="5.5781">
        <ele>429</ele>
        <time>2015-04-19T10:52:24Z</time>
      </trkpt>
      <trkpt lat="49.99444" lon="5.5782">
        <ele>429</ele>
        <time>2015-04-19T10:52:30Z</time>
      </trkpt>
      <trkpt lat="49.99443" lon="5.57828">
        <ele>429</ele>
        <time>2015-04-19T10:52:36Z</time>
      </trkpt>
      <trkpt lat="49.99444" lon="5.57832">
        <ele>429</ele>
        <time>2015-04-19T10:52:42Z</time>
      </trkpt>
      <trkpt lat="49.99445" lon="5.57841">
        <ele>429</ele>
        <time>2015-04-19T10:52:48Z</time>
      </trkpt>
      <trkpt lat="49.99448" lon="5.57849">
        <ele>429</ele>
        <time>2015-04-19T10:52:54Z</time>
      </trkpt>
      <trkpt lat="49.99451" lon="5.57853">
        <ele>429</ele>
        <time>2015-04-19T10:52:59Z</time>
      </trkpt>
      <trkpt lat="49.99458" lon="5.57856">
        <ele>429</ele>
        <time>2015-04-19T10:53:05Z</time>
      </trkpt>
      <trkpt lat="49.99461" lon="5.57852">
        <ele>429</ele>
        <time>2015-04-19T10:53:10Z</time>
      </trkpt>
      <trkpt lat="49.9946" lon="5.57853">
        <ele>429</ele>
        <time>2015-04-19T10:53:16Z</time>
      </trkpt>
      <trkpt lat="49.9946" lon="5.57855">
        <ele>429</ele>
        <time>2015-04-19T10:53:22Z</time>
      </trkpt>
      <trkpt lat="49.99459" lon="5.57855">
        <ele>429</ele>
        <time>2015-04-19T10:53:27Z</time>
      </trkpt>
      <trkpt lat="49.99459" lon="5.57856">
        <ele>429</ele>
        <time>2015-04-19T10:53:33Z</time>
      </trkpt>
      <trkpt lat="49.9946" lon="5.57856">
        <ele>429</ele>
        <time>2015-04-19T10:53:39Z</time>
      </trkpt>
      <trkpt lat="49.99461" lon="5.5786">
        <ele>429</ele>
        <time>2015-04-19T10:53:45Z</time>
      </trkpt>
      <trkpt lat="49.9946" lon="5.57862">
        <ele>429</ele>
        <time>2015-04-19T10:53:50Z</time>
      </trkpt>
      <trkpt lat="49.9946" lon="5.57863">
        <ele>429</ele>
        <time>2015-04-19T10:53:55Z</time>
      </trkpt>
      <trkpt lat="49.99459" lon="5.57863">
        <ele>429</ele>
        <time>2015-04-19T10:54:00Z</time>
      </trkpt>
      <trkpt lat="49.99458" lon="5.57861">
        <ele>430</ele>
        <time>2015-04-19T10:54:06Z</time>
      </trkpt>
      <trkpt lat="49.99456" lon="5.57861">
        <ele>429</ele>
        <time>2015-04-19T10:54:11Z</time>
      </trkpt>
      <trkpt lat="49.99456" lon="5.5786">
        <ele>430</ele>
        <time>2015-04-19T10:54:16Z</time>
      </trkpt>
      <trkpt lat="49.99456" lon="5.5786">
        <ele>430</ele>
        <time>2015-04-19T10:54:22Z</time>
      </trkpt>
      <trkpt lat="49.99455" lon="5.5786">
        <ele>429</ele>
        <time>2015-04-19T10:54:27Z</time>
      </trkpt>
      <trkpt lat="49.99454" lon="5.57861">
        <ele>429</ele>
        <time>2015-04-19T10:54:33Z</time>
      </trkpt>
      <trkpt lat="49.99454" lon="5.5786">
        <ele>430</ele>
        <time>2015-04-19T10:54:39Z</time>
      </trkpt>
      <trkpt lat="49.99454" lon="5.57859">
        <ele>430</ele>
        <time>2015-04-19T10:54:44Z</time>
      </trkpt>
      <trkpt lat="49.99453" lon="5.57857">
        <ele>430</ele>
        <time>2015-04-19T10:54:49Z</time>
      </trkpt>
      <trkpt lat="49.99453" lon="5.57854">
        <ele>430</ele>
        <time>2015-04-19T10:54:54Z</time>
      </trkpt>
      <trkpt lat="49.99452" lon="5.57853">
        <ele>429</ele>
        <time>2015-04-19T10:55:01Z</time>
      </trkpt>
      <trkpt lat="49.99451" lon="5.57853">
        <ele>430</ele>
        <time>2015-04-19T10:55:07Z</time>
      </trkpt>
      <trkpt lat="49.99451" lon="5.57854">
        <ele>430</ele>
        <time>2015-04-19T10:55:13Z</time>
      </trkpt>
      <trkpt lat="49.9945" lon="5.57854">
        <ele>430</ele>
        <time>2015-04-19T10:55:18Z</time>
      </trkpt>
      <trkpt lat="49.9945" lon="5.57855">
        <ele>430</ele>
        <time>2015-04-19T10:55:24Z</time>
      </trkpt>
      <trkpt lat="49.99449" lon="5.57856">
        <ele>430</ele>
        <time>2015-04-19T10:55:30Z</time>
      </trkpt>
      <trkpt lat="49.99449" lon="5.57856">
        <ele>430</ele>
        <time>2015-04-19T10:55:37Z</time>
      </trkpt>
      <trkpt lat="49.99449" lon="5.57856">
        <ele>430</ele>
        <time>2015-04-19T10:55:44Z</time>
      </trkpt>
      <trkpt lat="49.99449" lon="5.57856">
        <ele>430</ele>
        <time>2015-04-19T10:55:49Z</time>
      </trkpt>
      <trkpt lat="49.9945" lon="5.57856">
        <ele>430</ele>
        <time>2015-04-19T10:55:55Z</time>
      </trkpt>
      <trkpt lat="49.99451" lon="5.57854">
        <ele>429</ele>
        <time>2015-04-19T10:56:00Z</time>
      </trkpt>
      <trkpt lat="49.99451" lon="5.57852">
        <ele>430</ele>
        <time>2015-04-19T10:56:05Z</time>
      </trkpt>
      <trkpt lat="49.9945" lon="5.57852">
        <ele>430</ele>
        <time>2015-04-19T10:56:11Z</time>
      </trkpt>
      <trkpt lat="49.9945" lon="5.57851">
        <ele>430</ele>
        <time>2015-04-19T10:56:17Z</time>
      </trkpt>
      <trkpt lat="49.9945" lon="5.57851">
        <ele>430</ele>
        <time>2015-04-19T10:56:23Z</time>
      </trkpt>
      <trkpt lat="49.99451" lon="5.57852">
        <ele>429</ele>
        <time>2015-04-19T10:56:28Z</time>
      </trkpt>
      <trkpt lat="49.9945" lon="5.57853">
        <ele>430</ele>
        <time>2015-04-19T10:56:33Z</time>
      </trkpt>
      <trkpt lat="49.9945" lon="5.57854">
        <ele>430</ele>
        <time>2015-04-19T10:56:39Z</time>
      </trkpt>
      <trkpt lat="49.99451" lon="5.57855">
        <ele>429</ele>
        <time>2015-04-19T10:56:44Z</time>
      </trkpt>
      <trkpt lat="49.99451" lon="5.57857">
        <ele>429</ele>
        <time>2015-04-19T10:56:50Z</time>
      </trkpt>
      <trkpt lat="49.99452" lon="5.57859">
        <ele>430</ele>
        <time>2015-04-19T10:56:55Z</time>
      </trkpt>
      <trkpt lat="49.99453" lon="5.57859">
        <ele>430</ele>
        <time>2015-04-19T10:57:00Z</time>
      </trkpt>
      <trkpt lat="49.99452" lon="5.57856">
        <ele>430</ele>
        <time>2015-04-19T10:57:05Z</time>
      </trkpt>
      <trkpt lat="49.99452" lon="5.57857">
        <ele>429</ele>
        <time>2015-04-19T10:57:10Z</time>
      </trkpt>
      <trkpt lat="49.99452" lon="5.57856">
        <ele>430</ele>
        <time>2015-04-19T10:57:17Z</time>
      </trkpt>
      <trkpt lat="49.99453" lon="5.57856">
        <ele>429</ele>
        <time>2015-04-19T10:57:23Z</time>
      </trkpt>
      <trkpt lat="49.99455" lon="5.57857">
        <ele>429</ele>
        <time>2015-04-19T10:57:29Z</time>
      </trkpt>
      <trkpt lat="49.99457" lon="5.57862">
        <ele>430</ele>
        <time>2015-04-19T10:57:35Z</time>
      </trkpt>
      <trkpt lat="49.99458" lon="5.57867">
        <ele>431</ele>
        <time>2015-04-19T10:57:40Z</time>
      </trkpt>
      <trkpt lat="49.9946" lon="5.57871">
        <ele>432</ele>
        <time>2015-04-19T10:57:46Z</time>
      </trkpt>
      <trkpt lat="49.9946" lon="5.57873">
        <ele>432</ele>
        <time>2015-04-19T10:57:51Z</time>
      </trkpt>
      <trkpt lat="49.99461" lon="5.57875">
        <ele>433</ele>
        <time>2015-04-19T10:57:57Z</time>
      </trkpt>
      <trkpt lat="49.99461" lon="5.57875">
        <ele>434</ele>
        <time>2015-04-19T10:58:02Z</time>
      </trkpt>
      <trkpt lat="49.99461" lon="5.5788">
        <ele>434</ele>
        <time>2015-04-19T10:58:08Z</time>
      </trkpt>
      <trkpt lat="49.99459" lon="5.57885">
        <ele>434</ele>
        <time>2015-04-19T10:58:13Z</time>
      </trkpt>
      <trkpt lat="49.99456" lon="5.57889">
        <ele>434</ele>
        <time>2015-04-19T10:58:19Z</time>
      </trkpt>
      <trkpt lat="49.99456" lon="5.57896">
        <ele>435</ele>
        <time>2015-04-19T10:58:25Z</time>
      </trkpt>
      <trkpt lat="49.99454" lon="5.57904">
        <ele>435</ele>
        <time>2015-04-19T10:58:31Z</time>
      </trkpt>
      <trkpt lat="49.99452" lon="5.57912">
        <ele>436</ele>
        <time>2015-04-19T10:58:37Z</time>
      </trkpt>
      <trkpt lat="49.99453" lon="5.57921">
        <ele>437</ele>
        <time>2015-04-19T10:58:43Z</time>
      </trkpt>
      <trkpt lat="49.99456" lon="5.57927">
        <ele>437</ele>
        <time>2015-04-19T10:58:48Z</time>
      </trkpt>
      <trkpt lat="49.99457" lon="5.57929">
        <ele>438</ele>
        <time>2015-04-19T10:58:53Z</time>
      </trkpt>
      <trkpt lat="49.9946" lon="5.57929">
        <ele>438</ele>
        <time>2015-04-19T10:58:58Z</time>
      </trkpt>
      <trkpt lat="49.99461" lon="5.5793">
        <ele>438</ele>
        <time>2015-04-19T10:59:04Z</time>
      </trkpt>
      <trkpt lat="49.99463" lon="5.57934">
        <ele>438</ele>
        <time>2015-04-19T10:59:09Z</time>
      </trkpt>
      <trkpt lat="49.99466" lon="5.57939">
        <ele>439</ele>
        <time>2015-04-19T10:59:15Z</time>
      </trkpt>
      <trkpt lat="49.99469" lon="5.57943">
        <ele>439</ele>
        <time>2015-04-19T10:59:21Z</time>
      </trkpt>
      <trkpt lat="49.99472" lon="5.57946">
        <ele>440</ele>
        <time>2015-04-19T10:59:26Z</time>
      </trkpt>
      <trkpt lat="49.99476" lon="5.57951">
        <ele>440</ele>
        <time>2015-04-19T10:59:32Z</time>
      </trkpt>
      <trkpt lat="49.99479" lon="5.57957">
        <ele>441</ele>
        <time>2015-04-19T10:59:37Z</time>
      </trkpt>
      <trkpt lat="49.99482" lon="5.57961">
        <ele>441</ele>
        <time>2015-04-19T10:59:42Z</time>
      </trkpt>
      <trkpt lat="49.99486" lon="5.57964">
        <ele>441</ele>
        <time>2015-04-19T10:59:47Z</time>
      </trkpt>
      <trkpt lat="49.9949" lon="5.57969">
        <ele>442</ele>
        <time>2015-04-19T10:59:53Z</time>
      </trkpt>
      <trkpt lat="49.99493" lon="5.57969">
        <ele>442</ele>
        <time>2015-04-19T10:59:58Z</time>
      </trkpt>
      <trkpt lat="49.99495" lon="5.57968">
        <ele>442</ele>
        <time>2015-04-19T11:00:04Z</time>
      </trkpt>
      <trkpt lat="49.99495" lon="5.5797">
        <ele>442</ele>
        <time>2015-04-19T11:00:10Z</time>
      </trkpt>
      <trkpt lat="49.99495" lon="5.57972">
        <ele>442</ele>
        <time>2015-04-19T11:00:15Z</time>
      </trkpt>
      <trkpt lat="49.99495" lon="5.57976">
        <ele>442</ele>
        <time>2015-04-19T11:00:21Z</time>
      </trkpt>
      <trkpt lat="49.99497" lon="5.57983">
        <ele>443</ele>
        <time>2015-04-19T11:00:27Z</time>
      </trkpt>
      <trkpt lat="49.995" lon="5.57989">
        <ele>443</ele>
        <time>2015-04-19T11:00:32Z</time>
      </trkpt>
      <trkpt lat="49.99502" lon="5.57997">
        <ele>445</ele>
        <time>2015-04-19T11:00:38Z</time>
      </trkpt>
      <trkpt lat="49.99504" lon="5.58002">
        <ele>445</ele>
        <time>2015-04-19T11:00:43Z</time>
      </trkpt>
      <trkpt lat="49.99506" lon="5.58009">
        <ele>444</ele>
        <time>2015-04-19T11:00:49Z</time>
      </trkpt>
      <trkpt lat="49.99508" lon="5.58016">
        <ele>446</ele>
        <time>2015-04-19T11:00:55Z</time>
      </trkpt>
      <trkpt lat="49.99509" lon="5.58023">
        <ele>446</ele>
        <time>2015-04-19T11:01:00Z</time>
      </trkpt>
      <trkpt lat="49.99511" lon="5.5803">
        <ele>446</ele>
        <time>2015-04-19T11:01:06Z</time>
      </trkpt>
      <trkpt lat="49.99512" lon="5.5804">
        <ele>447</ele>
        <time>2015-04-19T11:01:12Z</time>
      </trkpt>
      <trkpt lat="49.99513" lon="5.58048">
        <ele>447</ele>
        <time>2015-04-19T11:01:17Z</time>
      </trkpt>
      <trkpt lat="49.99513" lon="5.58056">
        <ele>448</ele>
        <time>2015-04-19T11:01:23Z</time>
      </trkpt>
      <trkpt lat="49.99514" lon="5.58065">
        <ele>448</ele>
        <time>2015-04-19T11:01:29Z</time>
      </trkpt>
      <trkpt lat="49.99515" lon="5.58074">
        <ele>449</ele>
        <time>2015-04-19T11:01:35Z</time>
      </trkpt>
      <trkpt lat="49.99516" lon="5.58082">
        <ele>450</ele>
        <time>2015-04-19T11:01:41Z</time>
      </trkpt>
      <trkpt lat="49.99517" lon="5.58091">
        <ele>450</ele>
        <time>2015-04-19T11:01:46Z</time>
      </trkpt>
      <trkpt lat="49.99518" lon="5.581">
        <ele>450</ele>
        <time>2015-04-19T11:01:52Z</time>
      </trkpt>
      <trkpt lat="49.99519" lon="5.58107">
        <ele>451</ele>
        <time>2015-04-19T11:01:57Z</time>
      </trkpt>
      <trkpt lat="49.99519" lon="5.58116">
        <ele>451</ele>
        <time>2015-04-19T11:02:03Z</time>
      </trkpt>
      <trkpt lat="49.9952" lon="5.58122">
        <ele>451</ele>
        <time>2015-04-19T11:02:08Z</time>
      </trkpt>
      <trkpt lat="49.99521" lon="5.58129">
        <ele>452</ele>
        <time>2015-04-19T11:02:13Z</time>
      </trkpt>
      <trkpt lat="49.99522" lon="5.58136">
        <ele>452</ele>
        <time>2015-04-19T11:02:18Z</time>
      </trkpt>
      <trkpt lat="49.99523" lon="5.58144">
        <ele>453</ele>
        <time>2015-04-19T11:02:24Z</time>
      </trkpt>
      <trkpt lat="49.99525" lon="5.58153">
        <ele>454</ele>
        <time>2015-04-19T11:02:30Z</time>
      </trkpt>
      <trkpt lat="49.99527" lon="5.58161">
        <ele>454</ele>
        <time>2015-04-19T11:02:36Z</time>
      </trkpt>
      <trkpt lat="49.99529" lon="5.5817">
        <ele>455</ele>
        <time>2015-04-19T11:02:42Z</time>
      </trkpt>
      <trkpt lat="49.9953" lon="5.58176">
        <ele>456</ele>
        <time>2015-04-19T11:02:47Z</time>
      </trkpt>
      <trkpt lat="49.99532" lon="5.58182">
        <ele>457</ele>
        <time>2015-04-19T11:02:52Z</time>
      </trkpt>
      <trkpt lat="49.99534" lon="5.58188">
        <ele>456</ele>
        <time>2015-04-19T11:02:57Z</time>
      </trkpt>
      <trkpt lat="49.99535" lon="5.58196">
        <ele>457</ele>
        <time>2015-04-19T11:03:03Z</time>
      </trkpt>
      <trkpt lat="49.99536" lon="5.58202">
        <ele>458</ele>
        <time>2015-04-19T11:03:08Z</time>
      </trkpt>
      <trkpt lat="49.99536" lon="5.58205">
        <ele>458</ele>
        <time>2015-04-19T11:03:14Z</time>
      </trkpt>
      <trkpt lat="49.99537" lon="5.58211">
        <ele>459</ele>
        <time>2015-04-19T11:03:20Z</time>
      </trkpt>
      <trkpt lat="49.99539" lon="5.58216">
        <ele>459</ele>
        <time>2015-04-19T11:03:26Z</time>
      </trkpt>
      <trkpt lat="49.9954" lon="5.5822">
        <ele>459</ele>
        <time>2015-04-19T11:03:31Z</time>
      </trkpt>
      <trkpt lat="49.99541" lon="5.58225">
        <ele>460</ele>
        <time>2015-04-19T11:03:37Z</time>
      </trkpt>
      <trkpt lat="49.99543" lon="5.58232">
        <ele>460</ele>
        <time>2015-04-19T11:03:43Z</time>
      </trkpt>
      <trkpt lat="49.99544" lon="5.5824">
        <ele>461</ele>
        <time>2015-04-19T11:03:49Z</time>
      </trkpt>
      <trkpt lat="49.99545" lon="5.58246">
        <ele>461</ele>
        <time>2015-04-19T11:03:54Z</time>
      </trkpt>
      <trkpt lat="49.99546" lon="5.58254">
        <ele>462</ele>
        <time>2015-04-19T11:04:00Z</time>
      </trkpt>
      <trkpt lat="49.99547" lon="5.58261">
        <ele>462</ele>
        <time>2015-04-19T11:04:05Z</time>
      </trkpt>
      <trkpt lat="49.99548" lon="5.58267">
        <ele>462</ele>
        <time>2015-04-19T11:04:10Z</time>
      </trkpt>
      <trkpt lat="49.99549" lon="5.58275">
        <ele>463</ele>
        <time>2015-04-19T11:04:16Z</time>
      </trkpt>
      <trkpt lat="49.99549" lon="5.58283">
        <ele>464</ele>
        <time>2015-04-19T11:04:21Z</time>
      </trkpt>
      <trkpt lat="49.99551" lon="5.58289">
        <ele>464</ele>
        <time>2015-04-19T11:04:26Z</time>
      </trkpt>
      <trkpt lat="49.99552" lon="5.58296">
        <ele>464</ele>
        <time>2015-04-19T11:04:32Z</time>
      </trkpt>
      <trkpt lat="49.99553" lon="5.58304">
        <ele>465</ele>
        <time>2015-04-19T11:04:37Z</time>
      </trkpt>
      <trkpt lat="49.99554" lon="5.58312">
        <ele>465</ele>
        <time>2015-04-19T11:04:42Z</time>
      </trkpt>
      <trkpt lat="49.99556" lon="5.58319">
        <ele>465</ele>
        <time>2015-04-19T11:04:48Z</time>
      </trkpt>
      <trkpt lat="49.99558" lon="5.58325">
        <ele>466</ele>
        <time>2015-04-19T11:04:53Z</time>
      </trkpt>
      <trkpt lat="49.9956" lon="5.58332">
        <ele>466</ele>
        <time>2015-04-19T11:04:59Z</time>
      </trkpt>
      <trkpt lat="49.99561" lon="5.58341">
        <ele>466</ele>
        <time>2015-04-19T11:05:05Z</time>
      </trkpt>
      <trkpt lat="49.99563" lon="5.58349">
        <ele>467</ele>
        <time>2015-04-19T11:05:10Z</time>
      </trkpt>
      <trkpt lat="49.99564" lon="5.58358">
        <ele>467</ele>
        <time>2015-04-19T11:05:16Z</time>
      </trkpt>
      <trkpt lat="49.99565" lon="5.58368">
        <ele>467</ele>
        <time>2015-04-19T11:05:22Z</time>
      </trkpt>
      <trkpt lat="49.99567" lon="5.58376">
        <ele>468</ele>
        <time>2015-04-19T11:05:27Z</time>
      </trkpt>
      <trkpt lat="49.99568" lon="5.58386">
        <ele>468</ele>
        <time>2015-04-19T11:05:33Z</time>
      </trkpt>
      <trkpt lat="49.99571" lon="5.58393">
        <ele>468</ele>
        <time>2015-04-19T11:05:38Z</time>
      </trkpt>
      <trkpt lat="49.99574" lon="5.58403">
        <ele>468</ele>
        <time>2015-04-19T11:05:44Z</time>
      </trkpt>
      <trkpt lat="49.99577" lon="5.58412">
        <ele>468</ele>
        <time>2015-04-19T11:05:50Z</time>
      </trkpt>
      <trkpt lat="49.99578" lon="5.58419">
        <ele>468</ele>
        <time>2015-04-19T11:05:55Z</time>
      </trkpt>
      <trkpt lat="49.99582" lon="5.58427">
        <ele>468</ele>
        <time>2015-04-19T11:06:01Z</time>
      </trkpt>
      <trkpt lat="49.99585" lon="5.58434">
        <ele>469</ele>
        <time>2015-04-19T11:06:07Z</time>
      </trkpt>
      <trkpt lat="49.99587" lon="5.58441">
        <ele>468</ele>
        <time>2015-04-19T11:06:12Z</time>
      </trkpt>
      <trkpt lat="49.99591" lon="5.5845">
        <ele>468</ele>
        <time>2015-04-19T11:06:18Z</time>
      </trkpt>
      <trkpt lat="49.99595" lon="5.58458">
        <ele>469</ele>
        <time>2015-04-19T11:06:24Z</time>
      </trkpt>
      <trkpt lat="49.99598" lon="5.58464">
        <ele>469</ele>
        <time>2015-04-19T11:06:29Z</time>
      </trkpt>
      <trkpt lat="49.99601" lon="5.58471">
        <ele>469</ele>
        <time>2015-04-19T11:06:35Z</time>
      </trkpt>
      <trkpt lat="49.996" lon="5.58475">
        <ele>469</ele>
        <time>2015-04-19T11:06:40Z</time>
      </trkpt>
      <trkpt lat="49.996" lon="5.58476">
        <ele>469</ele>
        <time>2015-04-19T11:06:41Z</time>
      </trkpt>
    </trkseg>
  </trk>
</gpx>